<?xml version="1.0" encoding="UTF-8" standalone="no" ?>
<gpx xmlns="http://www.topografix.com/GPX/1/1" xmlns:xsi="http://www.w3.org/2001/XMLSchema-instance" xsi:schemaLocation="http://www.topografix.com/GPX/1/1 http://www.topografix.com/GPX/1/1/gpx.xsd" version="1.1" creator="VisuGPX - https://www.visugpx.com">
  <metadata>
    <name>Bois d\'Angaïs</name>
    <desc><![CDATA[Petit parcours de 8km, à faire par beau temps. C\'est une partie du chemin d\'Henri IV. La vue est très belle, mais le chemin est boueux et rempli d\'ornières après des orages.]]></desc>
  </metadata>
  <trk>
    <name><![CDATA[Tracé actuel: 11 DEC 2012 14:10]]></name>
    <trkseg>
      <trkpt lat="43.26735" lon="-0.26613">
        <ele>252.48</ele>
        <time>2012-12-11T13:10:34Z</time>
      </trkpt>
      <trkpt lat="43.26734" lon="-0.2662">
        <ele>271.71</ele>
        <time>2012-12-11T13:12:29Z</time>
      </trkpt>
      <trkpt lat="43.26737" lon="-0.26633">
        <ele>272.67</ele>
        <time>2012-12-11T13:12:42Z</time>
      </trkpt>
      <trkpt lat="43.26746" lon="-0.2663">
        <ele>270.75</ele>
        <time>2012-12-11T13:13:17Z</time>
      </trkpt>
      <trkpt lat="43.26757" lon="-0.26626">
        <ele>275.07</ele>
        <time>2012-12-11T13:13:30Z</time>
      </trkpt>
      <trkpt lat="43.26768" lon="-0.26623">
        <ele>275.56</ele>
        <time>2012-12-11T13:13:42Z</time>
      </trkpt>
      <trkpt lat="43.26777" lon="-0.26618">
        <ele>276.52</ele>
        <time>2012-12-11T13:13:53Z</time>
      </trkpt>
      <trkpt lat="43.26785" lon="-0.26611">
        <ele>277.96</ele>
        <time>2012-12-11T13:14:03Z</time>
      </trkpt>
      <trkpt lat="43.26794" lon="-0.26605">
        <ele>277.96</ele>
        <time>2012-12-11T13:14:13Z</time>
      </trkpt>
      <trkpt lat="43.26796" lon="-0.26592">
        <ele>278.44</ele>
        <time>2012-12-11T13:14:23Z</time>
      </trkpt>
      <trkpt lat="43.26792" lon="-0.26579">
        <ele>277.96</ele>
        <time>2012-12-11T13:14:33Z</time>
      </trkpt>
      <trkpt lat="43.26787" lon="-0.26567">
        <ele>276.52</ele>
        <time>2012-12-11T13:14:42Z</time>
      </trkpt>
      <trkpt lat="43.26783" lon="-0.26557">
        <ele>275.56</ele>
        <time>2012-12-11T13:14:52Z</time>
      </trkpt>
      <trkpt lat="43.26778" lon="-0.26545">
        <ele>275.07</ele>
        <time>2012-12-11T13:14:59Z</time>
      </trkpt>
      <trkpt lat="43.26778" lon="-0.26532">
        <ele>274.59</ele>
        <time>2012-12-11T13:15:06Z</time>
      </trkpt>
      <trkpt lat="43.2678" lon="-0.26519">
        <ele>274.59</ele>
        <time>2012-12-11T13:15:13Z</time>
      </trkpt>
      <trkpt lat="43.26775" lon="-0.26508">
        <ele>275.07</ele>
        <time>2012-12-11T13:15:21Z</time>
      </trkpt>
      <trkpt lat="43.26767" lon="-0.265">
        <ele>274.59</ele>
        <time>2012-12-11T13:15:29Z</time>
      </trkpt>
      <trkpt lat="43.26767" lon="-0.26488">
        <ele>276.04</ele>
        <time>2012-12-11T13:15:38Z</time>
      </trkpt>
      <trkpt lat="43.26765" lon="-0.26477">
        <ele>276.52</ele>
        <time>2012-12-11T13:15:50Z</time>
      </trkpt>
      <trkpt lat="43.26764" lon="-0.26464">
        <ele>277</ele>
        <time>2012-12-11T13:15:58Z</time>
      </trkpt>
      <trkpt lat="43.2676" lon="-0.26451">
        <ele>277.96</ele>
        <time>2012-12-11T13:16:06Z</time>
      </trkpt>
      <trkpt lat="43.26756" lon="-0.26439">
        <ele>278.92</ele>
        <time>2012-12-11T13:16:14Z</time>
      </trkpt>
      <trkpt lat="43.2675" lon="-0.26426">
        <ele>279.88</ele>
        <time>2012-12-11T13:16:22Z</time>
      </trkpt>
      <trkpt lat="43.26746" lon="-0.26414">
        <ele>280.36</ele>
        <time>2012-12-11T13:16:29Z</time>
      </trkpt>
      <trkpt lat="43.26741" lon="-0.26403">
        <ele>281.32</ele>
        <time>2012-12-11T13:16:36Z</time>
      </trkpt>
      <trkpt lat="43.26735" lon="-0.26392">
        <ele>281.8</ele>
        <time>2012-12-11T13:16:44Z</time>
      </trkpt>
      <trkpt lat="43.2673" lon="-0.2638">
        <ele>283.73</ele>
        <time>2012-12-11T13:16:52Z</time>
      </trkpt>
      <trkpt lat="43.26725" lon="-0.2637">
        <ele>283.73</ele>
        <time>2012-12-11T13:17:00Z</time>
      </trkpt>
      <trkpt lat="43.26718" lon="-0.2636">
        <ele>285.17</ele>
        <time>2012-12-11T13:17:08Z</time>
      </trkpt>
      <trkpt lat="43.26712" lon="-0.2635">
        <ele>286.13</ele>
        <time>2012-12-11T13:17:16Z</time>
      </trkpt>
      <trkpt lat="43.26707" lon="-0.26339">
        <ele>286.61</ele>
        <time>2012-12-11T13:17:24Z</time>
      </trkpt>
      <trkpt lat="43.267" lon="-0.26327">
        <ele>288.05</ele>
        <time>2012-12-11T13:17:33Z</time>
      </trkpt>
      <trkpt lat="43.26695" lon="-0.26316">
        <ele>289.49</ele>
        <time>2012-12-11T13:17:42Z</time>
      </trkpt>
      <trkpt lat="43.26689" lon="-0.26305">
        <ele>290.46</ele>
        <time>2012-12-11T13:17:51Z</time>
      </trkpt>
      <trkpt lat="43.26684" lon="-0.26295">
        <ele>291.42</ele>
        <time>2012-12-11T13:18:00Z</time>
      </trkpt>
      <trkpt lat="43.26679" lon="-0.26285">
        <ele>292.38</ele>
        <time>2012-12-11T13:18:09Z</time>
      </trkpt>
      <trkpt lat="43.26673" lon="-0.26275">
        <ele>293.82</ele>
        <time>2012-12-11T13:18:18Z</time>
      </trkpt>
      <trkpt lat="43.26668" lon="-0.26265">
        <ele>294.78</ele>
        <time>2012-12-11T13:18:27Z</time>
      </trkpt>
      <trkpt lat="43.26663" lon="-0.26254">
        <ele>295.26</ele>
        <time>2012-12-11T13:18:36Z</time>
      </trkpt>
      <trkpt lat="43.26657" lon="-0.26243">
        <ele>296.7</ele>
        <time>2012-12-11T13:18:46Z</time>
      </trkpt>
      <trkpt lat="43.26653" lon="-0.26232">
        <ele>297.67</ele>
        <time>2012-12-11T13:18:55Z</time>
      </trkpt>
      <trkpt lat="43.26646" lon="-0.26222">
        <ele>299.11</ele>
        <time>2012-12-11T13:19:04Z</time>
      </trkpt>
      <trkpt lat="43.2664" lon="-0.26212">
        <ele>300.55</ele>
        <time>2012-12-11T13:19:13Z</time>
      </trkpt>
      <trkpt lat="43.26634" lon="-0.262">
        <ele>302.47</ele>
        <time>2012-12-11T13:19:22Z</time>
      </trkpt>
      <trkpt lat="43.26629" lon="-0.2619">
        <ele>304.39</ele>
        <time>2012-12-11T13:19:33Z</time>
      </trkpt>
      <trkpt lat="43.26623" lon="-0.2618">
        <ele>303.43</ele>
        <time>2012-12-11T13:19:43Z</time>
      </trkpt>
      <trkpt lat="43.26615" lon="-0.2617">
        <ele>305.84</ele>
        <time>2012-12-11T13:19:56Z</time>
      </trkpt>
      <trkpt lat="43.26611" lon="-0.26158">
        <ele>306.32</ele>
        <time>2012-12-11T13:21:23Z</time>
      </trkpt>
      <trkpt lat="43.26604" lon="-0.26148">
        <ele>306.8</ele>
        <time>2012-12-11T13:21:34Z</time>
      </trkpt>
      <trkpt lat="43.26597" lon="-0.26139">
        <ele>308.24</ele>
        <time>2012-12-11T13:21:43Z</time>
      </trkpt>
      <trkpt lat="43.26588" lon="-0.26134">
        <ele>309.2</ele>
        <time>2012-12-11T13:21:53Z</time>
      </trkpt>
      <trkpt lat="43.26581" lon="-0.26126">
        <ele>310.64</ele>
        <time>2012-12-11T13:22:02Z</time>
      </trkpt>
      <trkpt lat="43.26573" lon="-0.26117">
        <ele>311.12</ele>
        <time>2012-12-11T13:22:13Z</time>
      </trkpt>
      <trkpt lat="43.26564" lon="-0.26113">
        <ele>313.05</ele>
        <time>2012-12-11T13:22:37Z</time>
      </trkpt>
      <trkpt lat="43.26556" lon="-0.26105">
        <ele>314.01</ele>
        <time>2012-12-11T13:22:53Z</time>
      </trkpt>
      <trkpt lat="43.26546" lon="-0.26098">
        <ele>315.93</ele>
        <time>2012-12-11T13:23:06Z</time>
      </trkpt>
      <trkpt lat="43.26537" lon="-0.26091">
        <ele>317.37</ele>
        <time>2012-12-11T13:23:19Z</time>
      </trkpt>
      <trkpt lat="43.26527" lon="-0.26088">
        <ele>318.81</ele>
        <time>2012-12-11T13:23:28Z</time>
      </trkpt>
      <trkpt lat="43.26517" lon="-0.26085">
        <ele>320.26</ele>
        <time>2012-12-11T13:23:36Z</time>
      </trkpt>
      <trkpt lat="43.26507" lon="-0.26081">
        <ele>320.74</ele>
        <time>2012-12-11T13:23:44Z</time>
      </trkpt>
      <trkpt lat="43.26497" lon="-0.26076">
        <ele>320.74</ele>
        <time>2012-12-11T13:23:52Z</time>
      </trkpt>
      <trkpt lat="43.26487" lon="-0.26072">
        <ele>321.22</ele>
        <time>2012-12-11T13:24:00Z</time>
      </trkpt>
      <trkpt lat="43.26479" lon="-0.26068">
        <ele>322.18</ele>
        <time>2012-12-11T13:24:08Z</time>
      </trkpt>
      <trkpt lat="43.2647" lon="-0.26063">
        <ele>322.66</ele>
        <time>2012-12-11T13:24:16Z</time>
      </trkpt>
      <trkpt lat="43.26462" lon="-0.26057">
        <ele>323.62</ele>
        <time>2012-12-11T13:24:24Z</time>
      </trkpt>
      <trkpt lat="43.26452" lon="-0.26051">
        <ele>324.58</ele>
        <time>2012-12-11T13:24:33Z</time>
      </trkpt>
      <trkpt lat="43.26443" lon="-0.26046">
        <ele>325.06</ele>
        <time>2012-12-11T13:24:41Z</time>
      </trkpt>
      <trkpt lat="43.26434" lon="-0.26041">
        <ele>326.5</ele>
        <time>2012-12-11T13:24:50Z</time>
      </trkpt>
      <trkpt lat="43.26426" lon="-0.26036">
        <ele>326.99</ele>
        <time>2012-12-11T13:25:01Z</time>
      </trkpt>
      <trkpt lat="43.2642" lon="-0.26033">
        <ele>327.47</ele>
        <time>2012-12-11T13:25:25Z</time>
      </trkpt>
      <trkpt lat="43.26413" lon="-0.26032">
        <ele>327.47</ele>
        <time>2012-12-11T13:25:52Z</time>
      </trkpt>
      <trkpt lat="43.26404" lon="-0.26035">
        <ele>325.54</ele>
        <time>2012-12-11T13:26:04Z</time>
      </trkpt>
      <trkpt lat="43.26394" lon="-0.26032">
        <ele>325.06</ele>
        <time>2012-12-11T13:26:13Z</time>
      </trkpt>
      <trkpt lat="43.26385" lon="-0.26026">
        <ele>326.02</ele>
        <time>2012-12-11T13:26:21Z</time>
      </trkpt>
      <trkpt lat="43.26377" lon="-0.26022">
        <ele>326.02</ele>
        <time>2012-12-11T13:26:29Z</time>
      </trkpt>
      <trkpt lat="43.26368" lon="-0.26014">
        <ele>326.5</ele>
        <time>2012-12-11T13:26:37Z</time>
      </trkpt>
      <trkpt lat="43.26361" lon="-0.26007">
        <ele>326.99</ele>
        <time>2012-12-11T13:26:46Z</time>
      </trkpt>
      <trkpt lat="43.26353" lon="-0.25998">
        <ele>327.47</ele>
        <time>2012-12-11T13:26:57Z</time>
      </trkpt>
      <trkpt lat="43.26345" lon="-0.25989">
        <ele>327.95</ele>
        <time>2012-12-11T13:27:08Z</time>
      </trkpt>
      <trkpt lat="43.2634" lon="-0.25979">
        <ele>328.43</ele>
        <time>2012-12-11T13:27:23Z</time>
      </trkpt>
      <trkpt lat="43.26334" lon="-0.25969">
        <ele>328.91</ele>
        <time>2012-12-11T13:27:39Z</time>
      </trkpt>
      <trkpt lat="43.26328" lon="-0.25958">
        <ele>329.39</ele>
        <time>2012-12-11T13:27:49Z</time>
      </trkpt>
      <trkpt lat="43.26322" lon="-0.25948">
        <ele>329.87</ele>
        <time>2012-12-11T13:28:00Z</time>
      </trkpt>
      <trkpt lat="43.26319" lon="-0.25936">
        <ele>329.87</ele>
        <time>2012-12-11T13:28:10Z</time>
      </trkpt>
      <trkpt lat="43.26315" lon="-0.25924">
        <ele>329.39</ele>
        <time>2012-12-11T13:28:23Z</time>
      </trkpt>
      <trkpt lat="43.26312" lon="-0.25911">
        <ele>329.87</ele>
        <time>2012-12-11T13:28:33Z</time>
      </trkpt>
      <trkpt lat="43.2631" lon="-0.25899">
        <ele>330.35</ele>
        <time>2012-12-11T13:28:42Z</time>
      </trkpt>
      <trkpt lat="43.26308" lon="-0.25887">
        <ele>330.83</ele>
        <time>2012-12-11T13:28:50Z</time>
      </trkpt>
      <trkpt lat="43.26306" lon="-0.25874">
        <ele>331.31</ele>
        <time>2012-12-11T13:28:59Z</time>
      </trkpt>
      <trkpt lat="43.26307" lon="-0.25861">
        <ele>330.83</ele>
        <time>2012-12-11T13:29:09Z</time>
      </trkpt>
      <trkpt lat="43.26307" lon="-0.25849">
        <ele>332.27</ele>
        <time>2012-12-11T13:29:18Z</time>
      </trkpt>
      <trkpt lat="43.26306" lon="-0.25836">
        <ele>332.27</ele>
        <time>2012-12-11T13:29:26Z</time>
      </trkpt>
      <trkpt lat="43.26307" lon="-0.25824">
        <ele>331.31</ele>
        <time>2012-12-11T13:29:34Z</time>
      </trkpt>
      <trkpt lat="43.2631" lon="-0.25811">
        <ele>331.31</ele>
        <time>2012-12-11T13:29:42Z</time>
      </trkpt>
      <trkpt lat="43.26312" lon="-0.25799">
        <ele>330.83</ele>
        <time>2012-12-11T13:29:50Z</time>
      </trkpt>
      <trkpt lat="43.26313" lon="-0.25787">
        <ele>330.83</ele>
        <time>2012-12-11T13:29:59Z</time>
      </trkpt>
      <trkpt lat="43.26316" lon="-0.25774">
        <ele>330.35</ele>
        <time>2012-12-11T13:30:08Z</time>
      </trkpt>
      <trkpt lat="43.26317" lon="-0.25762">
        <ele>329.87</ele>
        <time>2012-12-11T13:30:17Z</time>
      </trkpt>
      <trkpt lat="43.26318" lon="-0.2575">
        <ele>328.91</ele>
        <time>2012-12-11T13:30:26Z</time>
      </trkpt>
      <trkpt lat="43.2632" lon="-0.25738">
        <ele>328.91</ele>
        <time>2012-12-11T13:30:36Z</time>
      </trkpt>
      <trkpt lat="43.26322" lon="-0.25724">
        <ele>328.91</ele>
        <time>2012-12-11T13:30:48Z</time>
      </trkpt>
      <trkpt lat="43.26322" lon="-0.25711">
        <ele>327.95</ele>
        <time>2012-12-11T13:30:59Z</time>
      </trkpt>
      <trkpt lat="43.26321" lon="-0.25698">
        <ele>326.99</ele>
        <time>2012-12-11T13:31:10Z</time>
      </trkpt>
      <trkpt lat="43.26321" lon="-0.25684">
        <ele>325.54</ele>
        <time>2012-12-11T13:31:21Z</time>
      </trkpt>
      <trkpt lat="43.2632" lon="-0.25671">
        <ele>325.06</ele>
        <time>2012-12-11T13:31:31Z</time>
      </trkpt>
      <trkpt lat="43.26319" lon="-0.25658">
        <ele>324.58</ele>
        <time>2012-12-11T13:31:41Z</time>
      </trkpt>
      <trkpt lat="43.26318" lon="-0.25645">
        <ele>324.1</ele>
        <time>2012-12-11T13:31:51Z</time>
      </trkpt>
      <trkpt lat="43.26317" lon="-0.25632">
        <ele>323.14</ele>
        <time>2012-12-11T13:32:02Z</time>
      </trkpt>
      <trkpt lat="43.26313" lon="-0.25621">
        <ele>321.7</ele>
        <time>2012-12-11T13:32:12Z</time>
      </trkpt>
      <trkpt lat="43.2631" lon="-0.25609">
        <ele>320.74</ele>
        <time>2012-12-11T13:32:21Z</time>
      </trkpt>
      <trkpt lat="43.26306" lon="-0.25598">
        <ele>319.78</ele>
        <time>2012-12-11T13:32:31Z</time>
      </trkpt>
      <trkpt lat="43.26303" lon="-0.25585">
        <ele>319.3</ele>
        <time>2012-12-11T13:32:40Z</time>
      </trkpt>
      <trkpt lat="43.263" lon="-0.25574">
        <ele>318.81</ele>
        <time>2012-12-11T13:32:49Z</time>
      </trkpt>
      <trkpt lat="43.26296" lon="-0.25563">
        <ele>317.37</ele>
        <time>2012-12-11T13:32:58Z</time>
      </trkpt>
      <trkpt lat="43.26292" lon="-0.25553">
        <ele>316.89</ele>
        <time>2012-12-11T13:33:07Z</time>
      </trkpt>
      <trkpt lat="43.26287" lon="-0.2554">
        <ele>316.89</ele>
        <time>2012-12-11T13:33:16Z</time>
      </trkpt>
      <trkpt lat="43.26283" lon="-0.2553">
        <ele>315.93</ele>
        <time>2012-12-11T13:33:24Z</time>
      </trkpt>
      <trkpt lat="43.26279" lon="-0.2552">
        <ele>314.97</ele>
        <time>2012-12-11T13:33:32Z</time>
      </trkpt>
      <trkpt lat="43.26273" lon="-0.25509">
        <ele>315.93</ele>
        <time>2012-12-11T13:33:40Z</time>
      </trkpt>
      <trkpt lat="43.26268" lon="-0.25499">
        <ele>315.45</ele>
        <time>2012-12-11T13:33:48Z</time>
      </trkpt>
      <trkpt lat="43.26262" lon="-0.25489">
        <ele>314.97</ele>
        <time>2012-12-11T13:33:57Z</time>
      </trkpt>
      <trkpt lat="43.26254" lon="-0.25483">
        <ele>314.49</ele>
        <time>2012-12-11T13:34:06Z</time>
      </trkpt>
      <trkpt lat="43.26245" lon="-0.25476">
        <ele>314.01</ele>
        <time>2012-12-11T13:34:15Z</time>
      </trkpt>
      <trkpt lat="43.26236" lon="-0.25468">
        <ele>313.05</ele>
        <time>2012-12-11T13:34:24Z</time>
      </trkpt>
      <trkpt lat="43.26227" lon="-0.25462">
        <ele>312.57</ele>
        <time>2012-12-11T13:34:33Z</time>
      </trkpt>
      <trkpt lat="43.26218" lon="-0.25455">
        <ele>312.57</ele>
        <time>2012-12-11T13:34:42Z</time>
      </trkpt>
      <trkpt lat="43.26211" lon="-0.25447">
        <ele>312.57</ele>
        <time>2012-12-11T13:34:56Z</time>
      </trkpt>
      <trkpt lat="43.26203" lon="-0.25444">
        <ele>312.57</ele>
        <time>2012-12-11T13:35:06Z</time>
      </trkpt>
      <trkpt lat="43.26194" lon="-0.25438">
        <ele>313.05</ele>
        <time>2012-12-11T13:35:16Z</time>
      </trkpt>
      <trkpt lat="43.26186" lon="-0.25431">
        <ele>312.57</ele>
        <time>2012-12-11T13:35:25Z</time>
      </trkpt>
      <trkpt lat="43.26178" lon="-0.25424">
        <ele>311.6</ele>
        <time>2012-12-11T13:35:34Z</time>
      </trkpt>
      <trkpt lat="43.26169" lon="-0.25418">
        <ele>311.6</ele>
        <time>2012-12-11T13:35:43Z</time>
      </trkpt>
      <trkpt lat="43.26161" lon="-0.25411">
        <ele>312.57</ele>
        <time>2012-12-11T13:35:51Z</time>
      </trkpt>
      <trkpt lat="43.26153" lon="-0.25407">
        <ele>313.05</ele>
        <time>2012-12-11T13:36:00Z</time>
      </trkpt>
      <trkpt lat="43.26146" lon="-0.25402">
        <ele>312.57</ele>
        <time>2012-12-11T13:36:11Z</time>
      </trkpt>
      <trkpt lat="43.26137" lon="-0.25395">
        <ele>313.05</ele>
        <time>2012-12-11T13:36:20Z</time>
      </trkpt>
      <trkpt lat="43.26128" lon="-0.25388">
        <ele>313.05</ele>
        <time>2012-12-11T13:36:30Z</time>
      </trkpt>
      <trkpt lat="43.2612" lon="-0.25384">
        <ele>313.05</ele>
        <time>2012-12-11T13:36:40Z</time>
      </trkpt>
      <trkpt lat="43.26109" lon="-0.25377">
        <ele>314.01</ele>
        <time>2012-12-11T13:36:50Z</time>
      </trkpt>
      <trkpt lat="43.261" lon="-0.25369">
        <ele>314.01</ele>
        <time>2012-12-11T13:36:59Z</time>
      </trkpt>
      <trkpt lat="43.2609" lon="-0.25359">
        <ele>314.49</ele>
        <time>2012-12-11T13:37:09Z</time>
      </trkpt>
      <trkpt lat="43.26081" lon="-0.25353">
        <ele>314.49</ele>
        <time>2012-12-11T13:37:18Z</time>
      </trkpt>
      <trkpt lat="43.26072" lon="-0.25346">
        <ele>314.97</ele>
        <time>2012-12-11T13:37:28Z</time>
      </trkpt>
      <trkpt lat="43.26062" lon="-0.25339">
        <ele>314.97</ele>
        <time>2012-12-11T13:37:39Z</time>
      </trkpt>
      <trkpt lat="43.26054" lon="-0.25332">
        <ele>315.45</ele>
        <time>2012-12-11T13:37:48Z</time>
      </trkpt>
      <trkpt lat="43.26043" lon="-0.25321">
        <ele>315.93</ele>
        <time>2012-12-11T13:37:59Z</time>
      </trkpt>
      <trkpt lat="43.26034" lon="-0.25314">
        <ele>316.41</ele>
        <time>2012-12-11T13:38:08Z</time>
      </trkpt>
      <trkpt lat="43.26025" lon="-0.25306">
        <ele>316.89</ele>
        <time>2012-12-11T13:38:16Z</time>
      </trkpt>
      <trkpt lat="43.26015" lon="-0.25301">
        <ele>317.37</ele>
        <time>2012-12-11T13:38:25Z</time>
      </trkpt>
      <trkpt lat="43.26006" lon="-0.25294">
        <ele>318.33</ele>
        <time>2012-12-11T13:38:35Z</time>
      </trkpt>
      <trkpt lat="43.25996" lon="-0.25289">
        <ele>319.3</ele>
        <time>2012-12-11T13:38:44Z</time>
      </trkpt>
      <trkpt lat="43.25988" lon="-0.25283">
        <ele>320.26</ele>
        <time>2012-12-11T13:38:56Z</time>
      </trkpt>
      <trkpt lat="43.25978" lon="-0.25275">
        <ele>321.22</ele>
        <time>2012-12-11T13:39:06Z</time>
      </trkpt>
      <trkpt lat="43.2597" lon="-0.25269">
        <ele>322.18</ele>
        <time>2012-12-11T13:39:15Z</time>
      </trkpt>
      <trkpt lat="43.25961" lon="-0.25266">
        <ele>323.14</ele>
        <time>2012-12-11T13:39:25Z</time>
      </trkpt>
      <trkpt lat="43.25951" lon="-0.25261">
        <ele>324.1</ele>
        <time>2012-12-11T13:39:36Z</time>
      </trkpt>
      <trkpt lat="43.25942" lon="-0.25254">
        <ele>325.54</ele>
        <time>2012-12-11T13:39:49Z</time>
      </trkpt>
      <trkpt lat="43.25932" lon="-0.25248">
        <ele>327.47</ele>
        <time>2012-12-11T13:40:02Z</time>
      </trkpt>
      <trkpt lat="43.25921" lon="-0.25244">
        <ele>328.43</ele>
        <time>2012-12-11T13:40:16Z</time>
      </trkpt>
      <trkpt lat="43.2591" lon="-0.25238">
        <ele>329.87</ele>
        <time>2012-12-11T13:40:30Z</time>
      </trkpt>
      <trkpt lat="43.259" lon="-0.25232">
        <ele>331.31</ele>
        <time>2012-12-11T13:40:43Z</time>
      </trkpt>
      <trkpt lat="43.2589" lon="-0.25228">
        <ele>332.75</ele>
        <time>2012-12-11T13:40:57Z</time>
      </trkpt>
      <trkpt lat="43.25879" lon="-0.25223">
        <ele>334.2</ele>
        <time>2012-12-11T13:41:11Z</time>
      </trkpt>
      <trkpt lat="43.25869" lon="-0.25215">
        <ele>335.16</ele>
        <time>2012-12-11T13:41:23Z</time>
      </trkpt>
      <trkpt lat="43.25859" lon="-0.2521">
        <ele>336.6</ele>
        <time>2012-12-11T13:41:34Z</time>
      </trkpt>
      <trkpt lat="43.2585" lon="-0.25204">
        <ele>338.04</ele>
        <time>2012-12-11T13:41:45Z</time>
      </trkpt>
      <trkpt lat="43.25842" lon="-0.25199">
        <ele>339.48</ele>
        <time>2012-12-11T13:41:58Z</time>
      </trkpt>
      <trkpt lat="43.25835" lon="-0.25188">
        <ele>340.44</ele>
        <time>2012-12-11T13:42:11Z</time>
      </trkpt>
      <trkpt lat="43.25833" lon="-0.25175">
        <ele>340.92</ele>
        <time>2012-12-11T13:42:25Z</time>
      </trkpt>
      <trkpt lat="43.25828" lon="-0.25164">
        <ele>342.37</ele>
        <time>2012-12-11T13:42:35Z</time>
      </trkpt>
      <trkpt lat="43.25825" lon="-0.25153">
        <ele>342.37</ele>
        <time>2012-12-11T13:42:45Z</time>
      </trkpt>
      <trkpt lat="43.25822" lon="-0.25141">
        <ele>343.33</ele>
        <time>2012-12-11T13:42:55Z</time>
      </trkpt>
      <trkpt lat="43.25818" lon="-0.2513">
        <ele>344.29</ele>
        <time>2012-12-11T13:43:04Z</time>
      </trkpt>
      <trkpt lat="43.25814" lon="-0.25117">
        <ele>344.77</ele>
        <time>2012-12-11T13:43:13Z</time>
      </trkpt>
      <trkpt lat="43.2581" lon="-0.25106">
        <ele>345.25</ele>
        <time>2012-12-11T13:43:25Z</time>
      </trkpt>
      <trkpt lat="43.25806" lon="-0.25097">
        <ele>346.21</ele>
        <time>2012-12-11T13:43:38Z</time>
      </trkpt>
      <trkpt lat="43.25803" lon="-0.25086">
        <ele>344.29</ele>
        <time>2012-12-11T13:43:48Z</time>
      </trkpt>
      <trkpt lat="43.25798" lon="-0.25075">
        <ele>343.81</ele>
        <time>2012-12-11T13:44:00Z</time>
      </trkpt>
      <trkpt lat="43.25793" lon="-0.25064">
        <ele>342.85</ele>
        <time>2012-12-11T13:44:09Z</time>
      </trkpt>
      <trkpt lat="43.25788" lon="-0.25052">
        <ele>342.85</ele>
        <time>2012-12-11T13:44:19Z</time>
      </trkpt>
      <trkpt lat="43.25783" lon="-0.25042">
        <ele>342.85</ele>
        <time>2012-12-11T13:44:29Z</time>
      </trkpt>
      <trkpt lat="43.25777" lon="-0.25034">
        <ele>342.37</ele>
        <time>2012-12-11T13:44:38Z</time>
      </trkpt>
      <trkpt lat="43.25772" lon="-0.25025">
        <ele>342.37</ele>
        <time>2012-12-11T13:44:47Z</time>
      </trkpt>
      <trkpt lat="43.25769" lon="-0.25014">
        <ele>342.37</ele>
        <time>2012-12-11T13:45:02Z</time>
      </trkpt>
      <trkpt lat="43.25764" lon="-0.25004">
        <ele>342.37</ele>
        <time>2012-12-11T13:45:14Z</time>
      </trkpt>
      <trkpt lat="43.25757" lon="-0.24994">
        <ele>341.41</ele>
        <time>2012-12-11T13:45:23Z</time>
      </trkpt>
      <trkpt lat="43.2575" lon="-0.24984">
        <ele>341.89</ele>
        <time>2012-12-11T13:45:31Z</time>
      </trkpt>
      <trkpt lat="43.25744" lon="-0.24976">
        <ele>341.89</ele>
        <time>2012-12-11T13:45:39Z</time>
      </trkpt>
      <trkpt lat="43.25735" lon="-0.24969">
        <ele>341.89</ele>
        <time>2012-12-11T13:45:47Z</time>
      </trkpt>
      <trkpt lat="43.25726" lon="-0.24968">
        <ele>341.89</ele>
        <time>2012-12-11T13:45:55Z</time>
      </trkpt>
      <trkpt lat="43.25718" lon="-0.24962">
        <ele>341.89</ele>
        <time>2012-12-11T13:46:04Z</time>
      </trkpt>
      <trkpt lat="43.25709" lon="-0.24956">
        <ele>342.37</ele>
        <time>2012-12-11T13:46:13Z</time>
      </trkpt>
      <trkpt lat="43.25701" lon="-0.24952">
        <ele>342.37</ele>
        <time>2012-12-11T13:46:22Z</time>
      </trkpt>
      <trkpt lat="43.25692" lon="-0.24949">
        <ele>342.85</ele>
        <time>2012-12-11T13:46:31Z</time>
      </trkpt>
      <trkpt lat="43.25684" lon="-0.24946">
        <ele>342.37</ele>
        <time>2012-12-11T13:46:41Z</time>
      </trkpt>
      <trkpt lat="43.25674" lon="-0.24942">
        <ele>343.81</ele>
        <time>2012-12-11T13:46:53Z</time>
      </trkpt>
      <trkpt lat="43.25665" lon="-0.24938">
        <ele>343.81</ele>
        <time>2012-12-11T13:47:03Z</time>
      </trkpt>
      <trkpt lat="43.25656" lon="-0.24934">
        <ele>344.77</ele>
        <time>2012-12-11T13:47:13Z</time>
      </trkpt>
      <trkpt lat="43.25647" lon="-0.2493">
        <ele>344.77</ele>
        <time>2012-12-11T13:47:22Z</time>
      </trkpt>
      <trkpt lat="43.25638" lon="-0.24926">
        <ele>345.25</ele>
        <time>2012-12-11T13:47:31Z</time>
      </trkpt>
      <trkpt lat="43.25629" lon="-0.24923">
        <ele>345.73</ele>
        <time>2012-12-11T13:47:40Z</time>
      </trkpt>
      <trkpt lat="43.2562" lon="-0.24919">
        <ele>346.69</ele>
        <time>2012-12-11T13:47:50Z</time>
      </trkpt>
      <trkpt lat="43.25611" lon="-0.24912">
        <ele>347.65</ele>
        <time>2012-12-11T13:47:59Z</time>
      </trkpt>
      <trkpt lat="43.25603" lon="-0.24906">
        <ele>348.13</ele>
        <time>2012-12-11T13:48:09Z</time>
      </trkpt>
      <trkpt lat="43.25595" lon="-0.24899">
        <ele>348.62</ele>
        <time>2012-12-11T13:48:17Z</time>
      </trkpt>
      <trkpt lat="43.25587" lon="-0.24893">
        <ele>349.58</ele>
        <time>2012-12-11T13:48:26Z</time>
      </trkpt>
      <trkpt lat="43.25578" lon="-0.24885">
        <ele>350.06</ele>
        <time>2012-12-11T13:48:35Z</time>
      </trkpt>
      <trkpt lat="43.2557" lon="-0.24878">
        <ele>350.54</ele>
        <time>2012-12-11T13:48:45Z</time>
      </trkpt>
      <trkpt lat="43.25562" lon="-0.2487">
        <ele>350.54</ele>
        <time>2012-12-11T13:48:53Z</time>
      </trkpt>
      <trkpt lat="43.25554" lon="-0.24862">
        <ele>351.5</ele>
        <time>2012-12-11T13:49:02Z</time>
      </trkpt>
      <trkpt lat="43.25545" lon="-0.24856">
        <ele>352.46</ele>
        <time>2012-12-11T13:49:10Z</time>
      </trkpt>
      <trkpt lat="43.25537" lon="-0.24849">
        <ele>351.98</ele>
        <time>2012-12-11T13:49:19Z</time>
      </trkpt>
      <trkpt lat="43.2553" lon="-0.24842">
        <ele>352.94</ele>
        <time>2012-12-11T13:49:28Z</time>
      </trkpt>
      <trkpt lat="43.25521" lon="-0.24836">
        <ele>352.46</ele>
        <time>2012-12-11T13:49:36Z</time>
      </trkpt>
      <trkpt lat="43.25514" lon="-0.24829">
        <ele>352.94</ele>
        <time>2012-12-11T13:49:44Z</time>
      </trkpt>
      <trkpt lat="43.25506" lon="-0.24823">
        <ele>353.9</ele>
        <time>2012-12-11T13:49:52Z</time>
      </trkpt>
      <trkpt lat="43.25497" lon="-0.24815">
        <ele>353.9</ele>
        <time>2012-12-11T13:50:01Z</time>
      </trkpt>
      <trkpt lat="43.25491" lon="-0.24809">
        <ele>354.38</ele>
        <time>2012-12-11T13:50:09Z</time>
      </trkpt>
      <trkpt lat="43.25485" lon="-0.24802">
        <ele>354.86</ele>
        <time>2012-12-11T13:50:17Z</time>
      </trkpt>
      <trkpt lat="43.25478" lon="-0.24794">
        <ele>355.83</ele>
        <time>2012-12-11T13:50:26Z</time>
      </trkpt>
      <trkpt lat="43.25471" lon="-0.24784">
        <ele>355.83</ele>
        <time>2012-12-11T13:50:35Z</time>
      </trkpt>
      <trkpt lat="43.25465" lon="-0.24775">
        <ele>356.79</ele>
        <time>2012-12-11T13:50:43Z</time>
      </trkpt>
      <trkpt lat="43.25458" lon="-0.24766">
        <ele>357.75</ele>
        <time>2012-12-11T13:50:52Z</time>
      </trkpt>
      <trkpt lat="43.25452" lon="-0.24757">
        <ele>357.27</ele>
        <time>2012-12-11T13:51:01Z</time>
      </trkpt>
      <trkpt lat="43.25447" lon="-0.24747">
        <ele>357.75</ele>
        <time>2012-12-11T13:51:09Z</time>
      </trkpt>
      <trkpt lat="43.25441" lon="-0.24737">
        <ele>358.71</ele>
        <time>2012-12-11T13:51:18Z</time>
      </trkpt>
      <trkpt lat="43.25435" lon="-0.24728">
        <ele>358.23</ele>
        <time>2012-12-11T13:51:27Z</time>
      </trkpt>
      <trkpt lat="43.25429" lon="-0.24718">
        <ele>358.71</ele>
        <time>2012-12-11T13:51:37Z</time>
      </trkpt>
      <trkpt lat="43.25423" lon="-0.24709">
        <ele>358.71</ele>
        <time>2012-12-11T13:51:47Z</time>
      </trkpt>
      <trkpt lat="43.25419" lon="-0.24698">
        <ele>359.19</ele>
        <time>2012-12-11T13:51:59Z</time>
      </trkpt>
      <trkpt lat="43.25413" lon="-0.24686">
        <ele>358.71</ele>
        <time>2012-12-11T13:52:08Z</time>
      </trkpt>
      <trkpt lat="43.25409" lon="-0.24676">
        <ele>359.19</ele>
        <time>2012-12-11T13:52:16Z</time>
      </trkpt>
      <trkpt lat="43.25403" lon="-0.24666">
        <ele>358.71</ele>
        <time>2012-12-11T13:52:24Z</time>
      </trkpt>
      <trkpt lat="43.25397" lon="-0.24656">
        <ele>358.71</ele>
        <time>2012-12-11T13:52:34Z</time>
      </trkpt>
      <trkpt lat="43.25391" lon="-0.24644">
        <ele>358.23</ele>
        <time>2012-12-11T13:52:44Z</time>
      </trkpt>
      <trkpt lat="43.25385" lon="-0.24633">
        <ele>357.75</ele>
        <time>2012-12-11T13:52:52Z</time>
      </trkpt>
      <trkpt lat="43.2538" lon="-0.24621">
        <ele>357.27</ele>
        <time>2012-12-11T13:53:00Z</time>
      </trkpt>
      <trkpt lat="43.25375" lon="-0.24611">
        <ele>357.27</ele>
        <time>2012-12-11T13:53:08Z</time>
      </trkpt>
      <trkpt lat="43.25371" lon="-0.24601">
        <ele>357.75</ele>
        <time>2012-12-11T13:53:19Z</time>
      </trkpt>
      <trkpt lat="43.25365" lon="-0.24591">
        <ele>357.27</ele>
        <time>2012-12-11T13:53:29Z</time>
      </trkpt>
      <trkpt lat="43.2536" lon="-0.24581">
        <ele>358.23</ele>
        <time>2012-12-11T13:53:41Z</time>
      </trkpt>
      <trkpt lat="43.25354" lon="-0.24571">
        <ele>357.27</ele>
        <time>2012-12-11T13:53:49Z</time>
      </trkpt>
      <trkpt lat="43.25348" lon="-0.2456">
        <ele>356.79</ele>
        <time>2012-12-11T13:53:59Z</time>
      </trkpt>
      <trkpt lat="43.25344" lon="-0.24551">
        <ele>356.79</ele>
        <time>2012-12-11T13:54:16Z</time>
      </trkpt>
      <trkpt lat="43.25341" lon="-0.2454">
        <ele>356.31</ele>
        <time>2012-12-11T13:54:27Z</time>
      </trkpt>
      <trkpt lat="43.25334" lon="-0.24532">
        <ele>357.27</ele>
        <time>2012-12-11T13:54:36Z</time>
      </trkpt>
      <trkpt lat="43.25329" lon="-0.24521">
        <ele>356.79</ele>
        <time>2012-12-11T13:54:44Z</time>
      </trkpt>
      <trkpt lat="43.25323" lon="-0.24512">
        <ele>350.06</ele>
        <time>2012-12-11T13:54:52Z</time>
      </trkpt>
      <trkpt lat="43.25316" lon="-0.24504">
        <ele>356.79</ele>
        <time>2012-12-11T13:55:01Z</time>
      </trkpt>
      <trkpt lat="43.2531" lon="-0.24494">
        <ele>356.79</ele>
        <time>2012-12-11T13:55:11Z</time>
      </trkpt>
      <trkpt lat="43.25304" lon="-0.24484">
        <ele>357.75</ele>
        <time>2012-12-11T13:55:19Z</time>
      </trkpt>
      <trkpt lat="43.25298" lon="-0.24476">
        <ele>356.31</ele>
        <time>2012-12-11T13:55:27Z</time>
      </trkpt>
      <trkpt lat="43.2529" lon="-0.24468">
        <ele>358.23</ele>
        <time>2012-12-11T13:55:37Z</time>
      </trkpt>
      <trkpt lat="43.25285" lon="-0.24462">
        <ele>358.23</ele>
        <time>2012-12-11T13:56:17Z</time>
      </trkpt>
      <trkpt lat="43.25277" lon="-0.24454">
        <ele>358.23</ele>
        <time>2012-12-11T13:56:28Z</time>
      </trkpt>
      <trkpt lat="43.25272" lon="-0.24446">
        <ele>357.27</ele>
        <time>2012-12-11T13:56:46Z</time>
      </trkpt>
      <trkpt lat="43.25264" lon="-0.24439">
        <ele>356.79</ele>
        <time>2012-12-11T13:56:57Z</time>
      </trkpt>
      <trkpt lat="43.25255" lon="-0.24429">
        <ele>356.31</ele>
        <time>2012-12-11T13:57:06Z</time>
      </trkpt>
      <trkpt lat="43.25248" lon="-0.2442">
        <ele>355.83</ele>
        <time>2012-12-11T13:57:14Z</time>
      </trkpt>
      <trkpt lat="43.25242" lon="-0.2441">
        <ele>355.34</ele>
        <time>2012-12-11T13:57:23Z</time>
      </trkpt>
      <trkpt lat="43.25236" lon="-0.244">
        <ele>355.34</ele>
        <time>2012-12-11T13:57:33Z</time>
      </trkpt>
      <trkpt lat="43.2523" lon="-0.2439">
        <ele>355.83</ele>
        <time>2012-12-11T13:57:41Z</time>
      </trkpt>
      <trkpt lat="43.25224" lon="-0.2438">
        <ele>354.38</ele>
        <time>2012-12-11T13:57:49Z</time>
      </trkpt>
      <trkpt lat="43.2522" lon="-0.24369">
        <ele>354.38</ele>
        <time>2012-12-11T13:57:59Z</time>
      </trkpt>
      <trkpt lat="43.25214" lon="-0.24361">
        <ele>354.38</ele>
        <time>2012-12-11T13:58:08Z</time>
      </trkpt>
      <trkpt lat="43.25207" lon="-0.24352">
        <ele>354.38</ele>
        <time>2012-12-11T13:58:17Z</time>
      </trkpt>
      <trkpt lat="43.25202" lon="-0.24342">
        <ele>353.42</ele>
        <time>2012-12-11T13:58:26Z</time>
      </trkpt>
      <trkpt lat="43.25196" lon="-0.24332">
        <ele>353.9</ele>
        <time>2012-12-11T13:58:34Z</time>
      </trkpt>
      <trkpt lat="43.25191" lon="-0.24321">
        <ele>353.9</ele>
        <time>2012-12-11T13:58:43Z</time>
      </trkpt>
      <trkpt lat="43.25186" lon="-0.24312">
        <ele>353.9</ele>
        <time>2012-12-11T13:58:53Z</time>
      </trkpt>
      <trkpt lat="43.2518" lon="-0.24302">
        <ele>353.9</ele>
        <time>2012-12-11T13:59:06Z</time>
      </trkpt>
      <trkpt lat="43.25174" lon="-0.24292">
        <ele>353.9</ele>
        <time>2012-12-11T13:59:16Z</time>
      </trkpt>
      <trkpt lat="43.25167" lon="-0.24282">
        <ele>354.38</ele>
        <time>2012-12-11T13:59:24Z</time>
      </trkpt>
      <trkpt lat="43.25161" lon="-0.24271">
        <ele>355.34</ele>
        <time>2012-12-11T13:59:33Z</time>
      </trkpt>
      <trkpt lat="43.25155" lon="-0.2426">
        <ele>355.34</ele>
        <time>2012-12-11T13:59:41Z</time>
      </trkpt>
      <trkpt lat="43.25149" lon="-0.2425">
        <ele>356.31</ele>
        <time>2012-12-11T13:59:49Z</time>
      </trkpt>
      <trkpt lat="43.25143" lon="-0.2424">
        <ele>357.27</ele>
        <time>2012-12-11T13:59:58Z</time>
      </trkpt>
      <trkpt lat="43.25138" lon="-0.24231">
        <ele>358.23</ele>
        <time>2012-12-11T14:00:09Z</time>
      </trkpt>
      <trkpt lat="43.25132" lon="-0.24221">
        <ele>359.67</ele>
        <time>2012-12-11T14:00:20Z</time>
      </trkpt>
      <trkpt lat="43.25125" lon="-0.2421">
        <ele>360.15</ele>
        <time>2012-12-11T14:00:29Z</time>
      </trkpt>
      <trkpt lat="43.25118" lon="-0.24203">
        <ele>360.63</ele>
        <time>2012-12-11T14:00:38Z</time>
      </trkpt>
      <trkpt lat="43.2511" lon="-0.24201">
        <ele>360.63</ele>
        <time>2012-12-11T14:00:45Z</time>
      </trkpt>
      <trkpt lat="43.251" lon="-0.24202">
        <ele>359.67</ele>
        <time>2012-12-11T14:00:54Z</time>
      </trkpt>
      <trkpt lat="43.25095" lon="-0.24193">
        <ele>360.15</ele>
        <time>2012-12-11T14:01:08Z</time>
      </trkpt>
      <trkpt lat="43.25091" lon="-0.24181">
        <ele>361.11</ele>
        <time>2012-12-11T14:01:17Z</time>
      </trkpt>
      <trkpt lat="43.251" lon="-0.24179">
        <ele>362.07</ele>
        <time>2012-12-11T14:01:28Z</time>
      </trkpt>
      <trkpt lat="43.25106" lon="-0.24171">
        <ele>362.07</ele>
        <time>2012-12-11T14:01:36Z</time>
      </trkpt>
      <trkpt lat="43.25101" lon="-0.24159">
        <ele>362.55</ele>
        <time>2012-12-11T14:01:44Z</time>
      </trkpt>
      <trkpt lat="43.25096" lon="-0.24147">
        <ele>363.04</ele>
        <time>2012-12-11T14:01:53Z</time>
      </trkpt>
      <trkpt lat="43.25091" lon="-0.24134">
        <ele>363.52</ele>
        <time>2012-12-11T14:02:01Z</time>
      </trkpt>
      <trkpt lat="43.25085" lon="-0.24124">
        <ele>363.04</ele>
        <time>2012-12-11T14:02:09Z</time>
      </trkpt>
      <trkpt lat="43.2508" lon="-0.24112">
        <ele>363.04</ele>
        <time>2012-12-11T14:02:18Z</time>
      </trkpt>
      <trkpt lat="43.25075" lon="-0.24102">
        <ele>364</ele>
        <time>2012-12-11T14:02:26Z</time>
      </trkpt>
      <trkpt lat="43.25068" lon="-0.24095">
        <ele>364.48</ele>
        <time>2012-12-11T14:02:36Z</time>
      </trkpt>
      <trkpt lat="43.25063" lon="-0.24085">
        <ele>364</ele>
        <time>2012-12-11T14:02:44Z</time>
      </trkpt>
      <trkpt lat="43.25055" lon="-0.24075">
        <ele>364</ele>
        <time>2012-12-11T14:02:53Z</time>
      </trkpt>
      <trkpt lat="43.25047" lon="-0.24065">
        <ele>364.48</ele>
        <time>2012-12-11T14:03:03Z</time>
      </trkpt>
      <trkpt lat="43.2504" lon="-0.24055">
        <ele>364.48</ele>
        <time>2012-12-11T14:03:13Z</time>
      </trkpt>
      <trkpt lat="43.25034" lon="-0.24044">
        <ele>365.44</ele>
        <time>2012-12-11T14:03:23Z</time>
      </trkpt>
      <trkpt lat="43.25028" lon="-0.24034">
        <ele>366.4</ele>
        <time>2012-12-11T14:03:34Z</time>
      </trkpt>
      <trkpt lat="43.25022" lon="-0.24025">
        <ele>366.4</ele>
        <time>2012-12-11T14:03:45Z</time>
      </trkpt>
      <trkpt lat="43.25015" lon="-0.24013">
        <ele>367.36</ele>
        <time>2012-12-11T14:03:57Z</time>
      </trkpt>
      <trkpt lat="43.25008" lon="-0.24001">
        <ele>368.32</ele>
        <time>2012-12-11T14:04:10Z</time>
      </trkpt>
      <trkpt lat="43.25001" lon="-0.23993">
        <ele>368.8</ele>
        <time>2012-12-11T14:04:22Z</time>
      </trkpt>
      <trkpt lat="43.24995" lon="-0.23982">
        <ele>370.24</ele>
        <time>2012-12-11T14:04:34Z</time>
      </trkpt>
      <trkpt lat="43.24988" lon="-0.23971">
        <ele>370.24</ele>
        <time>2012-12-11T14:04:45Z</time>
      </trkpt>
      <trkpt lat="43.24981" lon="-0.23961">
        <ele>371.21</ele>
        <time>2012-12-11T14:04:56Z</time>
      </trkpt>
      <trkpt lat="43.24974" lon="-0.2395">
        <ele>372.17</ele>
        <time>2012-12-11T14:05:06Z</time>
      </trkpt>
      <trkpt lat="43.24967" lon="-0.23943">
        <ele>372.65</ele>
        <time>2012-12-11T14:05:20Z</time>
      </trkpt>
      <trkpt lat="43.24961" lon="-0.23934">
        <ele>372.65</ele>
        <time>2012-12-11T14:05:31Z</time>
      </trkpt>
      <trkpt lat="43.24953" lon="-0.23924">
        <ele>373.61</ele>
        <time>2012-12-11T14:05:42Z</time>
      </trkpt>
      <trkpt lat="43.24947" lon="-0.23914">
        <ele>374.57</ele>
        <time>2012-12-11T14:05:53Z</time>
      </trkpt>
      <trkpt lat="43.2494" lon="-0.23906">
        <ele>375.05</ele>
        <time>2012-12-11T14:06:05Z</time>
      </trkpt>
      <trkpt lat="43.24935" lon="-0.23896">
        <ele>375.05</ele>
        <time>2012-12-11T14:06:16Z</time>
      </trkpt>
      <trkpt lat="43.24925" lon="-0.23887">
        <ele>376.01</ele>
        <time>2012-12-11T14:06:28Z</time>
      </trkpt>
      <trkpt lat="43.24917" lon="-0.23876">
        <ele>376.97</ele>
        <time>2012-12-11T14:06:39Z</time>
      </trkpt>
      <trkpt lat="43.2491" lon="-0.23867">
        <ele>377.45</ele>
        <time>2012-12-11T14:06:49Z</time>
      </trkpt>
      <trkpt lat="43.24902" lon="-0.23858">
        <ele>377.45</ele>
        <time>2012-12-11T14:06:59Z</time>
      </trkpt>
      <trkpt lat="43.24895" lon="-0.2385">
        <ele>377.94</ele>
        <time>2012-12-11T14:07:08Z</time>
      </trkpt>
      <trkpt lat="43.24887" lon="-0.23842">
        <ele>378.9</ele>
        <time>2012-12-11T14:07:19Z</time>
      </trkpt>
      <trkpt lat="43.24879" lon="-0.23834">
        <ele>379.38</ele>
        <time>2012-12-11T14:07:29Z</time>
      </trkpt>
      <trkpt lat="43.24872" lon="-0.23824">
        <ele>380.34</ele>
        <time>2012-12-11T14:07:41Z</time>
      </trkpt>
      <trkpt lat="43.24865" lon="-0.23815">
        <ele>381.3</ele>
        <time>2012-12-11T14:07:51Z</time>
      </trkpt>
      <trkpt lat="43.24857" lon="-0.23806">
        <ele>381.78</ele>
        <time>2012-12-11T14:08:01Z</time>
      </trkpt>
      <trkpt lat="43.24851" lon="-0.23796">
        <ele>382.74</ele>
        <time>2012-12-11T14:08:10Z</time>
      </trkpt>
      <trkpt lat="43.24842" lon="-0.23788">
        <ele>383.7</ele>
        <time>2012-12-11T14:08:19Z</time>
      </trkpt>
      <trkpt lat="43.24834" lon="-0.23778">
        <ele>385.15</ele>
        <time>2012-12-11T14:08:28Z</time>
      </trkpt>
      <trkpt lat="43.24826" lon="-0.23767">
        <ele>385.63</ele>
        <time>2012-12-11T14:08:37Z</time>
      </trkpt>
      <trkpt lat="43.24818" lon="-0.23757">
        <ele>386.59</ele>
        <time>2012-12-11T14:08:48Z</time>
      </trkpt>
      <trkpt lat="43.24809" lon="-0.2375">
        <ele>387.07</ele>
        <time>2012-12-11T14:08:59Z</time>
      </trkpt>
      <trkpt lat="43.248" lon="-0.23742">
        <ele>388.03</ele>
        <time>2012-12-11T14:09:10Z</time>
      </trkpt>
      <trkpt lat="43.24792" lon="-0.23733">
        <ele>388.99</ele>
        <time>2012-12-11T14:09:21Z</time>
      </trkpt>
      <trkpt lat="43.24782" lon="-0.23724">
        <ele>389.95</ele>
        <time>2012-12-11T14:09:33Z</time>
      </trkpt>
      <trkpt lat="43.24771" lon="-0.23716">
        <ele>390.91</ele>
        <time>2012-12-11T14:09:45Z</time>
      </trkpt>
      <trkpt lat="43.24762" lon="-0.23711">
        <ele>391.39</ele>
        <time>2012-12-11T14:09:54Z</time>
      </trkpt>
      <trkpt lat="43.24752" lon="-0.23708">
        <ele>392.36</ele>
        <time>2012-12-11T14:10:05Z</time>
      </trkpt>
      <trkpt lat="43.24742" lon="-0.23705">
        <ele>392.84</ele>
        <time>2012-12-11T14:10:16Z</time>
      </trkpt>
      <trkpt lat="43.24732" lon="-0.23701">
        <ele>394.28</ele>
        <time>2012-12-11T14:10:26Z</time>
      </trkpt>
      <trkpt lat="43.24728" lon="-0.23707">
        <ele>395.72</ele>
        <time>2012-12-11T14:16:22Z</time>
      </trkpt>
      <trkpt lat="43.24721" lon="-0.23711">
        <ele>396.2</ele>
        <time>2012-12-11T14:19:15Z</time>
      </trkpt>
      <trkpt lat="43.24718" lon="-0.23725">
        <ele>395.72</ele>
        <time>2012-12-11T14:19:28Z</time>
      </trkpt>
      <trkpt lat="43.24717" lon="-0.23741">
        <ele>393.8</ele>
        <time>2012-12-11T14:19:42Z</time>
      </trkpt>
      <trkpt lat="43.24717" lon="-0.23759">
        <ele>391.87</ele>
        <time>2012-12-11T14:19:56Z</time>
      </trkpt>
      <trkpt lat="43.2472" lon="-0.23775">
        <ele>390.91</ele>
        <time>2012-12-11T14:20:09Z</time>
      </trkpt>
      <trkpt lat="43.24724" lon="-0.23789">
        <ele>389.47</ele>
        <time>2012-12-11T14:20:20Z</time>
      </trkpt>
      <trkpt lat="43.24728" lon="-0.23803">
        <ele>388.99</ele>
        <time>2012-12-11T14:20:31Z</time>
      </trkpt>
      <trkpt lat="43.24731" lon="-0.23818">
        <ele>388.03</ele>
        <time>2012-12-11T14:20:42Z</time>
      </trkpt>
      <trkpt lat="43.24733" lon="-0.23831">
        <ele>387.55</ele>
        <time>2012-12-11T14:20:51Z</time>
      </trkpt>
      <trkpt lat="43.24737" lon="-0.23845">
        <ele>386.11</ele>
        <time>2012-12-11T14:21:02Z</time>
      </trkpt>
      <trkpt lat="43.24738" lon="-0.23858">
        <ele>385.63</ele>
        <time>2012-12-11T14:21:14Z</time>
      </trkpt>
      <trkpt lat="43.24743" lon="-0.23874">
        <ele>384.66</ele>
        <time>2012-12-11T14:21:25Z</time>
      </trkpt>
      <trkpt lat="43.24747" lon="-0.23889">
        <ele>383.7</ele>
        <time>2012-12-11T14:21:35Z</time>
      </trkpt>
      <trkpt lat="43.24751" lon="-0.23902">
        <ele>383.7</ele>
        <time>2012-12-11T14:21:45Z</time>
      </trkpt>
      <trkpt lat="43.24757" lon="-0.23914">
        <ele>382.74</ele>
        <time>2012-12-11T14:21:55Z</time>
      </trkpt>
      <trkpt lat="43.2476" lon="-0.23928">
        <ele>382.26</ele>
        <time>2012-12-11T14:22:05Z</time>
      </trkpt>
      <trkpt lat="43.24763" lon="-0.23941">
        <ele>380.34</ele>
        <time>2012-12-11T14:22:16Z</time>
      </trkpt>
      <trkpt lat="43.24763" lon="-0.23955">
        <ele>379.38</ele>
        <time>2012-12-11T14:22:26Z</time>
      </trkpt>
      <trkpt lat="43.24764" lon="-0.23968">
        <ele>378.42</ele>
        <time>2012-12-11T14:22:35Z</time>
      </trkpt>
      <trkpt lat="43.24765" lon="-0.23981">
        <ele>377.94</ele>
        <time>2012-12-11T14:22:45Z</time>
      </trkpt>
      <trkpt lat="43.24767" lon="-0.23995">
        <ele>376.97</ele>
        <time>2012-12-11T14:22:55Z</time>
      </trkpt>
      <trkpt lat="43.24769" lon="-0.24009">
        <ele>376.01</ele>
        <time>2012-12-11T14:23:05Z</time>
      </trkpt>
      <trkpt lat="43.24771" lon="-0.24022">
        <ele>375.53</ele>
        <time>2012-12-11T14:23:14Z</time>
      </trkpt>
      <trkpt lat="43.24772" lon="-0.24036">
        <ele>375.05</ele>
        <time>2012-12-11T14:23:23Z</time>
      </trkpt>
      <trkpt lat="43.24772" lon="-0.24052">
        <ele>374.57</ele>
        <time>2012-12-11T14:23:34Z</time>
      </trkpt>
      <trkpt lat="43.24769" lon="-0.24063">
        <ele>375.05</ele>
        <time>2012-12-11T14:23:43Z</time>
      </trkpt>
      <trkpt lat="43.24767" lon="-0.24076">
        <ele>376.01</ele>
        <time>2012-12-11T14:23:54Z</time>
      </trkpt>
      <trkpt lat="43.24766" lon="-0.24089">
        <ele>376.97</ele>
        <time>2012-12-11T14:24:05Z</time>
      </trkpt>
      <trkpt lat="43.24765" lon="-0.24104">
        <ele>376.97</ele>
        <time>2012-12-11T14:24:14Z</time>
      </trkpt>
      <trkpt lat="43.24763" lon="-0.2412">
        <ele>377.94</ele>
        <time>2012-12-11T14:24:24Z</time>
      </trkpt>
      <trkpt lat="43.24763" lon="-0.24135">
        <ele>377.94</ele>
        <time>2012-12-11T14:24:34Z</time>
      </trkpt>
      <trkpt lat="43.24765" lon="-0.2415">
        <ele>377.45</ele>
        <time>2012-12-11T14:24:44Z</time>
      </trkpt>
      <trkpt lat="43.24767" lon="-0.24165">
        <ele>376.97</ele>
        <time>2012-12-11T14:24:55Z</time>
      </trkpt>
      <trkpt lat="43.24769" lon="-0.2418">
        <ele>376.97</ele>
        <time>2012-12-11T14:25:06Z</time>
      </trkpt>
      <trkpt lat="43.2477" lon="-0.24197">
        <ele>376.49</ele>
        <time>2012-12-11T14:25:17Z</time>
      </trkpt>
      <trkpt lat="43.24771" lon="-0.24213">
        <ele>375.53</ele>
        <time>2012-12-11T14:25:29Z</time>
      </trkpt>
      <trkpt lat="43.24775" lon="-0.2423">
        <ele>374.57</ele>
        <time>2012-12-11T14:25:41Z</time>
      </trkpt>
      <trkpt lat="43.24781" lon="-0.24246">
        <ele>374.09</ele>
        <time>2012-12-11T14:25:53Z</time>
      </trkpt>
      <trkpt lat="43.24787" lon="-0.24259">
        <ele>373.61</ele>
        <time>2012-12-11T14:26:04Z</time>
      </trkpt>
      <trkpt lat="43.24792" lon="-0.24271">
        <ele>372.65</ele>
        <time>2012-12-11T14:26:15Z</time>
      </trkpt>
      <trkpt lat="43.24796" lon="-0.24285">
        <ele>371.69</ele>
        <time>2012-12-11T14:26:24Z</time>
      </trkpt>
      <trkpt lat="43.248" lon="-0.243">
        <ele>371.21</ele>
        <time>2012-12-11T14:26:35Z</time>
      </trkpt>
      <trkpt lat="43.24805" lon="-0.24311">
        <ele>369.76</ele>
        <time>2012-12-11T14:26:46Z</time>
      </trkpt>
      <trkpt lat="43.24809" lon="-0.24324">
        <ele>369.28</ele>
        <time>2012-12-11T14:26:55Z</time>
      </trkpt>
      <trkpt lat="43.24813" lon="-0.24337">
        <ele>368.8</ele>
        <time>2012-12-11T14:27:04Z</time>
      </trkpt>
      <trkpt lat="43.24817" lon="-0.2435">
        <ele>367.84</ele>
        <time>2012-12-11T14:27:15Z</time>
      </trkpt>
      <trkpt lat="43.24819" lon="-0.24362">
        <ele>366.88</ele>
        <time>2012-12-11T14:27:24Z</time>
      </trkpt>
      <trkpt lat="43.2482" lon="-0.24376">
        <ele>365.92</ele>
        <time>2012-12-11T14:27:34Z</time>
      </trkpt>
      <trkpt lat="43.24821" lon="-0.24388">
        <ele>365.92</ele>
        <time>2012-12-11T14:27:45Z</time>
      </trkpt>
      <trkpt lat="43.24821" lon="-0.24401">
        <ele>365.92</ele>
        <time>2012-12-11T14:27:54Z</time>
      </trkpt>
      <trkpt lat="43.24822" lon="-0.24415">
        <ele>364.96</ele>
        <time>2012-12-11T14:28:04Z</time>
      </trkpt>
      <trkpt lat="43.24822" lon="-0.2443">
        <ele>364.48</ele>
        <time>2012-12-11T14:28:14Z</time>
      </trkpt>
      <trkpt lat="43.24822" lon="-0.24443">
        <ele>363.52</ele>
        <time>2012-12-11T14:28:24Z</time>
      </trkpt>
      <trkpt lat="43.24823" lon="-0.24457">
        <ele>363.52</ele>
        <time>2012-12-11T14:28:34Z</time>
      </trkpt>
      <trkpt lat="43.24824" lon="-0.2447">
        <ele>363.04</ele>
        <time>2012-12-11T14:28:43Z</time>
      </trkpt>
      <trkpt lat="43.24827" lon="-0.24484">
        <ele>363.04</ele>
        <time>2012-12-11T14:28:53Z</time>
      </trkpt>
      <trkpt lat="43.24833" lon="-0.24495">
        <ele>362.55</ele>
        <time>2012-12-11T14:29:04Z</time>
      </trkpt>
      <trkpt lat="43.24836" lon="-0.24511">
        <ele>363.04</ele>
        <time>2012-12-11T14:29:14Z</time>
      </trkpt>
      <trkpt lat="43.24839" lon="-0.24526">
        <ele>362.07</ele>
        <time>2012-12-11T14:29:25Z</time>
      </trkpt>
      <trkpt lat="43.24843" lon="-0.24539">
        <ele>361.59</ele>
        <time>2012-12-11T14:29:36Z</time>
      </trkpt>
      <trkpt lat="43.24847" lon="-0.24552">
        <ele>361.11</ele>
        <time>2012-12-11T14:29:46Z</time>
      </trkpt>
      <trkpt lat="43.24851" lon="-0.24565">
        <ele>360.15</ele>
        <time>2012-12-11T14:29:57Z</time>
      </trkpt>
      <trkpt lat="43.24854" lon="-0.2458">
        <ele>359.19</ele>
        <time>2012-12-11T14:30:08Z</time>
      </trkpt>
      <trkpt lat="43.2486" lon="-0.24593">
        <ele>358.23</ele>
        <time>2012-12-11T14:30:19Z</time>
      </trkpt>
      <trkpt lat="43.24864" lon="-0.24607">
        <ele>356.79</ele>
        <time>2012-12-11T14:30:31Z</time>
      </trkpt>
      <trkpt lat="43.24868" lon="-0.24622">
        <ele>355.34</ele>
        <time>2012-12-11T14:30:42Z</time>
      </trkpt>
      <trkpt lat="43.24873" lon="-0.24635">
        <ele>354.38</ele>
        <time>2012-12-11T14:30:54Z</time>
      </trkpt>
      <trkpt lat="43.24877" lon="-0.24649">
        <ele>352.94</ele>
        <time>2012-12-11T14:31:05Z</time>
      </trkpt>
      <trkpt lat="43.24882" lon="-0.24663">
        <ele>351.5</ele>
        <time>2012-12-11T14:31:17Z</time>
      </trkpt>
      <trkpt lat="43.24888" lon="-0.24676">
        <ele>350.06</ele>
        <time>2012-12-11T14:31:29Z</time>
      </trkpt>
      <trkpt lat="43.24894" lon="-0.24688">
        <ele>349.1</ele>
        <time>2012-12-11T14:31:40Z</time>
      </trkpt>
      <trkpt lat="43.24898" lon="-0.247">
        <ele>347.65</ele>
        <time>2012-12-11T14:31:51Z</time>
      </trkpt>
      <trkpt lat="43.24905" lon="-0.24712">
        <ele>345.73</ele>
        <time>2012-12-11T14:32:03Z</time>
      </trkpt>
      <trkpt lat="43.24913" lon="-0.24724">
        <ele>343.81</ele>
        <time>2012-12-11T14:32:19Z</time>
      </trkpt>
      <trkpt lat="43.24921" lon="-0.24734">
        <ele>341.41</ele>
        <time>2012-12-11T14:32:32Z</time>
      </trkpt>
      <trkpt lat="43.24928" lon="-0.24746">
        <ele>339.48</ele>
        <time>2012-12-11T14:32:45Z</time>
      </trkpt>
      <trkpt lat="43.24935" lon="-0.24758">
        <ele>337.56</ele>
        <time>2012-12-11T14:33:00Z</time>
      </trkpt>
      <trkpt lat="43.24942" lon="-0.24771">
        <ele>335.16</ele>
        <time>2012-12-11T14:33:12Z</time>
      </trkpt>
      <trkpt lat="43.24951" lon="-0.24781">
        <ele>334.2</ele>
        <time>2012-12-11T14:33:25Z</time>
      </trkpt>
      <trkpt lat="43.24958" lon="-0.24793">
        <ele>332.27</ele>
        <time>2012-12-11T14:33:38Z</time>
      </trkpt>
      <trkpt lat="43.2496" lon="-0.24811">
        <ele>331.31</ele>
        <time>2012-12-11T14:33:51Z</time>
      </trkpt>
      <trkpt lat="43.24963" lon="-0.24827">
        <ele>329.87</ele>
        <time>2012-12-11T14:34:05Z</time>
      </trkpt>
      <trkpt lat="43.24966" lon="-0.24843">
        <ele>328.91</ele>
        <time>2012-12-11T14:34:18Z</time>
      </trkpt>
      <trkpt lat="43.24969" lon="-0.2486">
        <ele>327.95</ele>
        <time>2012-12-11T14:34:31Z</time>
      </trkpt>
      <trkpt lat="43.24973" lon="-0.24876">
        <ele>326.5</ele>
        <time>2012-12-11T14:34:45Z</time>
      </trkpt>
      <trkpt lat="43.24979" lon="-0.2489">
        <ele>324.1</ele>
        <time>2012-12-11T14:34:58Z</time>
      </trkpt>
      <trkpt lat="43.24984" lon="-0.24905">
        <ele>322.18</ele>
        <time>2012-12-11T14:35:13Z</time>
      </trkpt>
      <trkpt lat="43.24991" lon="-0.24919">
        <ele>320.74</ele>
        <time>2012-12-11T14:35:30Z</time>
      </trkpt>
      <trkpt lat="43.24993" lon="-0.24927">
        <ele>319.3</ele>
        <time>2012-12-11T14:37:31Z</time>
      </trkpt>
      <trkpt lat="43.25003" lon="-0.2494">
        <ele>318.33</ele>
        <time>2012-12-11T14:37:41Z</time>
      </trkpt>
      <trkpt lat="43.25006" lon="-0.24953">
        <ele>317.37</ele>
        <time>2012-12-11T14:37:52Z</time>
      </trkpt>
      <trkpt lat="43.25006" lon="-0.24968">
        <ele>318.33</ele>
        <time>2012-12-11T14:38:03Z</time>
      </trkpt>
      <trkpt lat="43.25004" lon="-0.24981">
        <ele>319.3</ele>
        <time>2012-12-11T14:38:15Z</time>
      </trkpt>
      <trkpt lat="43.25004" lon="-0.24994">
        <ele>319.78</ele>
        <time>2012-12-11T14:38:25Z</time>
      </trkpt>
      <trkpt lat="43.25006" lon="-0.2501">
        <ele>321.22</ele>
        <time>2012-12-11T14:38:38Z</time>
      </trkpt>
      <trkpt lat="43.25008" lon="-0.25026">
        <ele>322.18</ele>
        <time>2012-12-11T14:38:51Z</time>
      </trkpt>
      <trkpt lat="43.25006" lon="-0.2504">
        <ele>323.14</ele>
        <time>2012-12-11T14:39:02Z</time>
      </trkpt>
      <trkpt lat="43.25001" lon="-0.25052">
        <ele>324.1</ele>
        <time>2012-12-11T14:39:17Z</time>
      </trkpt>
      <trkpt lat="43.25008" lon="-0.25067">
        <ele>324.1</ele>
        <time>2012-12-11T14:39:30Z</time>
      </trkpt>
      <trkpt lat="43.25013" lon="-0.25082">
        <ele>324.58</ele>
        <time>2012-12-11T14:39:42Z</time>
      </trkpt>
      <trkpt lat="43.25017" lon="-0.25096">
        <ele>325.06</ele>
        <time>2012-12-11T14:39:54Z</time>
      </trkpt>
      <trkpt lat="43.25024" lon="-0.25107">
        <ele>324.58</ele>
        <time>2012-12-11T14:40:04Z</time>
      </trkpt>
      <trkpt lat="43.25029" lon="-0.25117">
        <ele>324.58</ele>
        <time>2012-12-11T14:40:14Z</time>
      </trkpt>
      <trkpt lat="43.25036" lon="-0.25125">
        <ele>324.58</ele>
        <time>2012-12-11T14:40:23Z</time>
      </trkpt>
      <trkpt lat="43.25044" lon="-0.25138">
        <ele>324.58</ele>
        <time>2012-12-11T14:40:34Z</time>
      </trkpt>
      <trkpt lat="43.25048" lon="-0.25151">
        <ele>324.1</ele>
        <time>2012-12-11T14:40:44Z</time>
      </trkpt>
      <trkpt lat="43.25053" lon="-0.25164">
        <ele>324.1</ele>
        <time>2012-12-11T14:40:55Z</time>
      </trkpt>
      <trkpt lat="43.25058" lon="-0.25176">
        <ele>324.1</ele>
        <time>2012-12-11T14:41:05Z</time>
      </trkpt>
      <trkpt lat="43.25063" lon="-0.25189">
        <ele>324.58</ele>
        <time>2012-12-11T14:41:16Z</time>
      </trkpt>
      <trkpt lat="43.25065" lon="-0.25204">
        <ele>324.1</ele>
        <time>2012-12-11T14:41:28Z</time>
      </trkpt>
      <trkpt lat="43.25068" lon="-0.25219">
        <ele>323.62</ele>
        <time>2012-12-11T14:41:38Z</time>
      </trkpt>
      <trkpt lat="43.25075" lon="-0.2523">
        <ele>323.14</ele>
        <time>2012-12-11T14:41:48Z</time>
      </trkpt>
      <trkpt lat="43.2508" lon="-0.25244">
        <ele>322.18</ele>
        <time>2012-12-11T14:41:59Z</time>
      </trkpt>
      <trkpt lat="43.25081" lon="-0.2526">
        <ele>322.66</ele>
        <time>2012-12-11T14:42:10Z</time>
      </trkpt>
      <trkpt lat="43.25085" lon="-0.25275">
        <ele>323.62</ele>
        <time>2012-12-11T14:42:21Z</time>
      </trkpt>
      <trkpt lat="43.25089" lon="-0.25287">
        <ele>324.58</ele>
        <time>2012-12-11T14:42:33Z</time>
      </trkpt>
      <trkpt lat="43.25093" lon="-0.25301">
        <ele>325.54</ele>
        <time>2012-12-11T14:42:46Z</time>
      </trkpt>
      <trkpt lat="43.25098" lon="-0.25314">
        <ele>326.99</ele>
        <time>2012-12-11T14:42:58Z</time>
      </trkpt>
      <trkpt lat="43.25103" lon="-0.2533">
        <ele>327.95</ele>
        <time>2012-12-11T14:43:13Z</time>
      </trkpt>
      <trkpt lat="43.25109" lon="-0.25343">
        <ele>329.87</ele>
        <time>2012-12-11T14:43:28Z</time>
      </trkpt>
      <trkpt lat="43.25115" lon="-0.25356">
        <ele>330.83</ele>
        <time>2012-12-11T14:43:40Z</time>
      </trkpt>
      <trkpt lat="43.2512" lon="-0.2537">
        <ele>331.79</ele>
        <time>2012-12-11T14:43:51Z</time>
      </trkpt>
      <trkpt lat="43.25124" lon="-0.25384">
        <ele>332.27</ele>
        <time>2012-12-11T14:44:03Z</time>
      </trkpt>
      <trkpt lat="43.2513" lon="-0.25394">
        <ele>332.75</ele>
        <time>2012-12-11T14:44:15Z</time>
      </trkpt>
      <trkpt lat="43.25135" lon="-0.25407">
        <ele>332.27</ele>
        <time>2012-12-11T14:44:25Z</time>
      </trkpt>
      <trkpt lat="43.25141" lon="-0.25417">
        <ele>332.75</ele>
        <time>2012-12-11T14:44:34Z</time>
      </trkpt>
      <trkpt lat="43.25148" lon="-0.25427">
        <ele>332.75</ele>
        <time>2012-12-11T14:44:45Z</time>
      </trkpt>
      <trkpt lat="43.25154" lon="-0.25441">
        <ele>332.75</ele>
        <time>2012-12-11T14:44:56Z</time>
      </trkpt>
      <trkpt lat="43.25163" lon="-0.25451">
        <ele>332.75</ele>
        <time>2012-12-11T14:45:06Z</time>
      </trkpt>
      <trkpt lat="43.25172" lon="-0.25456">
        <ele>332.27</ele>
        <time>2012-12-11T14:45:15Z</time>
      </trkpt>
      <trkpt lat="43.2518" lon="-0.25464">
        <ele>331.31</ele>
        <time>2012-12-11T14:45:26Z</time>
      </trkpt>
      <trkpt lat="43.25187" lon="-0.25476">
        <ele>330.83</ele>
        <time>2012-12-11T14:45:38Z</time>
      </trkpt>
      <trkpt lat="43.25193" lon="-0.25488">
        <ele>329.87</ele>
        <time>2012-12-11T14:45:51Z</time>
      </trkpt>
      <trkpt lat="43.25199" lon="-0.25504">
        <ele>328.91</ele>
        <time>2012-12-11T14:46:04Z</time>
      </trkpt>
      <trkpt lat="43.25203" lon="-0.2552">
        <ele>326.99</ele>
        <time>2012-12-11T14:46:17Z</time>
      </trkpt>
      <trkpt lat="43.25206" lon="-0.25537">
        <ele>324.58</ele>
        <time>2012-12-11T14:46:30Z</time>
      </trkpt>
      <trkpt lat="43.25211" lon="-0.25553">
        <ele>324.1</ele>
        <time>2012-12-11T14:46:43Z</time>
      </trkpt>
      <trkpt lat="43.25219" lon="-0.25569">
        <ele>322.66</ele>
        <time>2012-12-11T14:47:33Z</time>
      </trkpt>
      <trkpt lat="43.25224" lon="-0.25583">
        <ele>321.7</ele>
        <time>2012-12-11T14:47:46Z</time>
      </trkpt>
      <trkpt lat="43.25226" lon="-0.25601">
        <ele>321.7</ele>
        <time>2012-12-11T14:47:57Z</time>
      </trkpt>
      <trkpt lat="43.25232" lon="-0.25618">
        <ele>320.74</ele>
        <time>2012-12-11T14:48:07Z</time>
      </trkpt>
      <trkpt lat="43.2524" lon="-0.25626">
        <ele>320.74</ele>
        <time>2012-12-11T14:48:16Z</time>
      </trkpt>
      <trkpt lat="43.25247" lon="-0.25641">
        <ele>320.74</ele>
        <time>2012-12-11T14:48:27Z</time>
      </trkpt>
      <trkpt lat="43.25256" lon="-0.25648">
        <ele>321.22</ele>
        <time>2012-12-11T14:48:35Z</time>
      </trkpt>
      <trkpt lat="43.25264" lon="-0.25651">
        <ele>322.18</ele>
        <time>2012-12-11T14:48:44Z</time>
      </trkpt>
      <trkpt lat="43.25272" lon="-0.25659">
        <ele>322.66</ele>
        <time>2012-12-11T14:48:55Z</time>
      </trkpt>
      <trkpt lat="43.25281" lon="-0.25667">
        <ele>323.14</ele>
        <time>2012-12-11T14:49:05Z</time>
      </trkpt>
      <trkpt lat="43.25289" lon="-0.25677">
        <ele>323.14</ele>
        <time>2012-12-11T14:49:15Z</time>
      </trkpt>
      <trkpt lat="43.25299" lon="-0.25682">
        <ele>323.14</ele>
        <time>2012-12-11T14:49:25Z</time>
      </trkpt>
      <trkpt lat="43.25307" lon="-0.25695">
        <ele>322.66</ele>
        <time>2012-12-11T14:49:37Z</time>
      </trkpt>
      <trkpt lat="43.25312" lon="-0.2571">
        <ele>322.66</ele>
        <time>2012-12-11T14:49:49Z</time>
      </trkpt>
      <trkpt lat="43.25318" lon="-0.25722">
        <ele>322.18</ele>
        <time>2012-12-11T14:49:59Z</time>
      </trkpt>
      <trkpt lat="43.25322" lon="-0.25736">
        <ele>321.7</ele>
        <time>2012-12-11T14:50:10Z</time>
      </trkpt>
      <trkpt lat="43.25326" lon="-0.2575">
        <ele>322.18</ele>
        <time>2012-12-11T14:50:21Z</time>
      </trkpt>
      <trkpt lat="43.25328" lon="-0.25764">
        <ele>322.18</ele>
        <time>2012-12-11T14:50:34Z</time>
      </trkpt>
      <trkpt lat="43.25333" lon="-0.2578">
        <ele>322.18</ele>
        <time>2012-12-11T14:50:46Z</time>
      </trkpt>
      <trkpt lat="43.25334" lon="-0.258">
        <ele>321.7</ele>
        <time>2012-12-11T14:50:58Z</time>
      </trkpt>
      <trkpt lat="43.25335" lon="-0.25818">
        <ele>321.7</ele>
        <time>2012-12-11T14:51:10Z</time>
      </trkpt>
      <trkpt lat="43.25334" lon="-0.25835">
        <ele>321.7</ele>
        <time>2012-12-11T14:51:21Z</time>
      </trkpt>
      <trkpt lat="43.25335" lon="-0.25853">
        <ele>321.7</ele>
        <time>2012-12-11T14:51:33Z</time>
      </trkpt>
      <trkpt lat="43.25337" lon="-0.25869">
        <ele>322.18</ele>
        <time>2012-12-11T14:51:45Z</time>
      </trkpt>
      <trkpt lat="43.25341" lon="-0.25883">
        <ele>323.14</ele>
        <time>2012-12-11T14:51:57Z</time>
      </trkpt>
      <trkpt lat="43.25346" lon="-0.25898">
        <ele>323.14</ele>
        <time>2012-12-11T14:52:09Z</time>
      </trkpt>
      <trkpt lat="43.2535" lon="-0.25916">
        <ele>322.66</ele>
        <time>2012-12-11T14:52:21Z</time>
      </trkpt>
      <trkpt lat="43.25356" lon="-0.25929">
        <ele>322.66</ele>
        <time>2012-12-11T14:52:30Z</time>
      </trkpt>
      <trkpt lat="43.25364" lon="-0.25937">
        <ele>322.18</ele>
        <time>2012-12-11T14:52:39Z</time>
      </trkpt>
      <trkpt lat="43.25372" lon="-0.25945">
        <ele>321.22</ele>
        <time>2012-12-11T14:52:49Z</time>
      </trkpt>
      <trkpt lat="43.25379" lon="-0.25952">
        <ele>319.78</ele>
        <time>2012-12-11T14:53:01Z</time>
      </trkpt>
      <trkpt lat="43.25387" lon="-0.2596">
        <ele>318.81</ele>
        <time>2012-12-11T14:53:11Z</time>
      </trkpt>
      <trkpt lat="43.25394" lon="-0.25968">
        <ele>317.85</ele>
        <time>2012-12-11T14:53:21Z</time>
      </trkpt>
      <trkpt lat="43.25401" lon="-0.25975">
        <ele>317.37</ele>
        <time>2012-12-11T14:53:32Z</time>
      </trkpt>
      <trkpt lat="43.25409" lon="-0.25984">
        <ele>316.41</ele>
        <time>2012-12-11T14:53:45Z</time>
      </trkpt>
      <trkpt lat="43.25417" lon="-0.25991">
        <ele>315.45</ele>
        <time>2012-12-11T14:53:56Z</time>
      </trkpt>
      <trkpt lat="43.25426" lon="-0.26001">
        <ele>314.49</ele>
        <time>2012-12-11T14:54:09Z</time>
      </trkpt>
      <trkpt lat="43.25433" lon="-0.26009">
        <ele>314.01</ele>
        <time>2012-12-11T14:54:19Z</time>
      </trkpt>
      <trkpt lat="43.25441" lon="-0.26015">
        <ele>313.05</ele>
        <time>2012-12-11T14:54:28Z</time>
      </trkpt>
      <trkpt lat="43.2545" lon="-0.26023">
        <ele>312.09</ele>
        <time>2012-12-11T14:54:38Z</time>
      </trkpt>
      <trkpt lat="43.25457" lon="-0.26032">
        <ele>310.16</ele>
        <time>2012-12-11T14:54:49Z</time>
      </trkpt>
      <trkpt lat="43.25466" lon="-0.26038">
        <ele>308.72</ele>
        <time>2012-12-11T14:55:01Z</time>
      </trkpt>
      <trkpt lat="43.25475" lon="-0.26045">
        <ele>305.84</ele>
        <time>2012-12-11T14:55:13Z</time>
      </trkpt>
      <trkpt lat="43.25483" lon="-0.26052">
        <ele>303.91</ele>
        <time>2012-12-11T14:55:26Z</time>
      </trkpt>
      <trkpt lat="43.25491" lon="-0.26061">
        <ele>301.51</ele>
        <time>2012-12-11T14:55:39Z</time>
      </trkpt>
      <trkpt lat="43.25495" lon="-0.26075">
        <ele>300.07</ele>
        <time>2012-12-11T14:55:52Z</time>
      </trkpt>
      <trkpt lat="43.25498" lon="-0.26087">
        <ele>297.67</ele>
        <time>2012-12-11T14:56:08Z</time>
      </trkpt>
      <trkpt lat="43.25502" lon="-0.26101">
        <ele>295.74</ele>
        <time>2012-12-11T14:56:20Z</time>
      </trkpt>
      <trkpt lat="43.25504" lon="-0.26113">
        <ele>294.78</ele>
        <time>2012-12-11T14:56:31Z</time>
      </trkpt>
      <trkpt lat="43.255" lon="-0.26124">
        <ele>292.86</ele>
        <time>2012-12-11T14:56:41Z</time>
      </trkpt>
      <trkpt lat="43.25491" lon="-0.26132">
        <ele>291.9</ele>
        <time>2012-12-11T14:56:52Z</time>
      </trkpt>
      <trkpt lat="43.25484" lon="-0.26141">
        <ele>290.46</ele>
        <time>2012-12-11T14:57:03Z</time>
      </trkpt>
      <trkpt lat="43.25476" lon="-0.26151">
        <ele>288.53</ele>
        <time>2012-12-11T14:57:16Z</time>
      </trkpt>
      <trkpt lat="43.25468" lon="-0.26158">
        <ele>286.13</ele>
        <time>2012-12-11T14:57:29Z</time>
      </trkpt>
      <trkpt lat="43.2546" lon="-0.26167">
        <ele>284.21</ele>
        <time>2012-12-11T14:57:39Z</time>
      </trkpt>
      <trkpt lat="43.25453" lon="-0.26173">
        <ele>283.25</ele>
        <time>2012-12-11T14:57:51Z</time>
      </trkpt>
      <trkpt lat="43.25442" lon="-0.26179">
        <ele>281.32</ele>
        <time>2012-12-11T14:58:04Z</time>
      </trkpt>
      <trkpt lat="43.25433" lon="-0.26185">
        <ele>278.92</ele>
        <time>2012-12-11T14:58:20Z</time>
      </trkpt>
      <trkpt lat="43.25422" lon="-0.26191">
        <ele>277</ele>
        <time>2012-12-11T14:58:35Z</time>
      </trkpt>
      <trkpt lat="43.25412" lon="-0.26197">
        <ele>275.56</ele>
        <time>2012-12-11T14:58:50Z</time>
      </trkpt>
      <trkpt lat="43.254" lon="-0.26202">
        <ele>273.63</ele>
        <time>2012-12-11T14:59:04Z</time>
      </trkpt>
      <trkpt lat="43.25396" lon="-0.26217">
        <ele>271.23</ele>
        <time>2012-12-11T14:59:18Z</time>
      </trkpt>
      <trkpt lat="43.25403" lon="-0.26231">
        <ele>269.31</ele>
        <time>2012-12-11T14:59:29Z</time>
      </trkpt>
      <trkpt lat="43.25412" lon="-0.26242">
        <ele>266.9</ele>
        <time>2012-12-11T14:59:44Z</time>
      </trkpt>
      <trkpt lat="43.25422" lon="-0.26249">
        <ele>265.46</ele>
        <time>2012-12-11T14:59:57Z</time>
      </trkpt>
      <trkpt lat="43.2543" lon="-0.26256">
        <ele>264.5</ele>
        <time>2012-12-11T15:00:09Z</time>
      </trkpt>
      <trkpt lat="43.25438" lon="-0.26262">
        <ele>261.62</ele>
        <time>2012-12-11T15:00:24Z</time>
      </trkpt>
      <trkpt lat="43.25446" lon="-0.26271">
        <ele>261.14</ele>
        <time>2012-12-11T15:00:36Z</time>
      </trkpt>
      <trkpt lat="43.25454" lon="-0.26281">
        <ele>259.21</ele>
        <time>2012-12-11T15:00:47Z</time>
      </trkpt>
      <trkpt lat="43.25462" lon="-0.2629">
        <ele>257.29</ele>
        <time>2012-12-11T15:00:57Z</time>
      </trkpt>
      <trkpt lat="43.25472" lon="-0.26301">
        <ele>255.37</ele>
        <time>2012-12-11T15:01:08Z</time>
      </trkpt>
      <trkpt lat="43.25479" lon="-0.2631">
        <ele>252.96</ele>
        <time>2012-12-11T15:01:20Z</time>
      </trkpt>
      <trkpt lat="43.25485" lon="-0.26322">
        <ele>251.04</ele>
        <time>2012-12-11T15:01:31Z</time>
      </trkpt>
      <trkpt lat="43.25481" lon="-0.26333">
        <ele>249.12</ele>
        <time>2012-12-11T15:01:42Z</time>
      </trkpt>
      <trkpt lat="43.25477" lon="-0.26346">
        <ele>246.72</ele>
        <time>2012-12-11T15:01:55Z</time>
      </trkpt>
      <trkpt lat="43.25473" lon="-0.2636">
        <ele>245.27</ele>
        <time>2012-12-11T15:02:07Z</time>
      </trkpt>
      <trkpt lat="43.2547" lon="-0.26376">
        <ele>244.31</ele>
        <time>2012-12-11T15:02:20Z</time>
      </trkpt>
      <trkpt lat="43.25465" lon="-0.26388">
        <ele>242.39</ele>
        <time>2012-12-11T15:02:33Z</time>
      </trkpt>
      <trkpt lat="43.2546" lon="-0.26402">
        <ele>241.43</ele>
        <time>2012-12-11T15:02:44Z</time>
      </trkpt>
      <trkpt lat="43.25459" lon="-0.26416">
        <ele>240.95</ele>
        <time>2012-12-11T15:02:56Z</time>
      </trkpt>
      <trkpt lat="43.25457" lon="-0.26418">
        <ele>239.99</ele>
        <time>2012-12-11T15:14:08Z</time>
      </trkpt>
      <trkpt lat="43.25456" lon="-0.26424">
        <ele>240.47</ele>
        <time>2012-12-11T15:25:12Z</time>
      </trkpt>
      <trkpt lat="43.25453" lon="-0.26434">
        <ele>239.51</ele>
        <time>2012-12-11T15:25:27Z</time>
      </trkpt>
      <trkpt lat="43.25457" lon="-0.26445">
        <ele>239.51</ele>
        <time>2012-12-11T15:25:37Z</time>
      </trkpt>
      <trkpt lat="43.25465" lon="-0.2645">
        <ele>238.06</ele>
        <time>2012-12-11T15:25:47Z</time>
      </trkpt>
      <trkpt lat="43.25474" lon="-0.26456">
        <ele>237.58</ele>
        <time>2012-12-11T15:25:56Z</time>
      </trkpt>
      <trkpt lat="43.25485" lon="-0.2646">
        <ele>236.62</ele>
        <time>2012-12-11T15:26:06Z</time>
      </trkpt>
      <trkpt lat="43.25495" lon="-0.26462">
        <ele>235.66</ele>
        <time>2012-12-11T15:26:14Z</time>
      </trkpt>
      <trkpt lat="43.25505" lon="-0.26463">
        <ele>235.18</ele>
        <time>2012-12-11T15:26:23Z</time>
      </trkpt>
      <trkpt lat="43.25515" lon="-0.26464">
        <ele>234.7</ele>
        <time>2012-12-11T15:26:32Z</time>
      </trkpt>
      <trkpt lat="43.25525" lon="-0.26464">
        <ele>233.74</ele>
        <time>2012-12-11T15:26:44Z</time>
      </trkpt>
      <trkpt lat="43.25535" lon="-0.26465">
        <ele>233.26</ele>
        <time>2012-12-11T15:26:53Z</time>
      </trkpt>
      <trkpt lat="43.25544" lon="-0.26466">
        <ele>233.26</ele>
        <time>2012-12-11T15:27:01Z</time>
      </trkpt>
      <trkpt lat="43.25553" lon="-0.2647">
        <ele>232.3</ele>
        <time>2012-12-11T15:27:10Z</time>
      </trkpt>
      <trkpt lat="43.25562" lon="-0.26476">
        <ele>232.3</ele>
        <time>2012-12-11T15:27:18Z</time>
      </trkpt>
      <trkpt lat="43.2557" lon="-0.26484">
        <ele>232.3</ele>
        <time>2012-12-11T15:27:26Z</time>
      </trkpt>
      <trkpt lat="43.2558" lon="-0.26486">
        <ele>232.3</ele>
        <time>2012-12-11T15:27:34Z</time>
      </trkpt>
      <trkpt lat="43.25592" lon="-0.26477">
        <ele>232.78</ele>
        <time>2012-12-11T15:27:43Z</time>
      </trkpt>
      <trkpt lat="43.25602" lon="-0.26472">
        <ele>232.78</ele>
        <time>2012-12-11T15:27:52Z</time>
      </trkpt>
      <trkpt lat="43.25612" lon="-0.26468">
        <ele>233.26</ele>
        <time>2012-12-11T15:28:01Z</time>
      </trkpt>
      <trkpt lat="43.25622" lon="-0.26464">
        <ele>233.26</ele>
        <time>2012-12-11T15:28:10Z</time>
      </trkpt>
      <trkpt lat="43.25631" lon="-0.26458">
        <ele>234.22</ele>
        <time>2012-12-11T15:28:19Z</time>
      </trkpt>
      <trkpt lat="43.2564" lon="-0.26455">
        <ele>234.7</ele>
        <time>2012-12-11T15:28:28Z</time>
      </trkpt>
      <trkpt lat="43.25649" lon="-0.26452">
        <ele>235.18</ele>
        <time>2012-12-11T15:28:37Z</time>
      </trkpt>
      <trkpt lat="43.25658" lon="-0.26449">
        <ele>235.18</ele>
        <time>2012-12-11T15:28:47Z</time>
      </trkpt>
      <trkpt lat="43.25669" lon="-0.26444">
        <ele>236.14</ele>
        <time>2012-12-11T15:28:57Z</time>
      </trkpt>
      <trkpt lat="43.25679" lon="-0.26439">
        <ele>237.58</ele>
        <time>2012-12-11T15:29:07Z</time>
      </trkpt>
      <trkpt lat="43.25688" lon="-0.26435">
        <ele>238.54</ele>
        <time>2012-12-11T15:29:17Z</time>
      </trkpt>
      <trkpt lat="43.25697" lon="-0.26431">
        <ele>239.51</ele>
        <time>2012-12-11T15:29:26Z</time>
      </trkpt>
      <trkpt lat="43.25706" lon="-0.26428">
        <ele>240.47</ele>
        <time>2012-12-11T15:29:35Z</time>
      </trkpt>
      <trkpt lat="43.25716" lon="-0.26424">
        <ele>240.95</ele>
        <time>2012-12-11T15:29:44Z</time>
      </trkpt>
      <trkpt lat="43.25724" lon="-0.2642">
        <ele>242.39</ele>
        <time>2012-12-11T15:29:54Z</time>
      </trkpt>
      <trkpt lat="43.25734" lon="-0.26414">
        <ele>242.87</ele>
        <time>2012-12-11T15:30:04Z</time>
      </trkpt>
      <trkpt lat="43.25745" lon="-0.26411">
        <ele>242.87</ele>
        <time>2012-12-11T15:30:13Z</time>
      </trkpt>
      <trkpt lat="43.25754" lon="-0.26407">
        <ele>243.83</ele>
        <time>2012-12-11T15:30:22Z</time>
      </trkpt>
      <trkpt lat="43.25764" lon="-0.26403">
        <ele>244.79</ele>
        <time>2012-12-11T15:30:31Z</time>
      </trkpt>
      <trkpt lat="43.25774" lon="-0.26399">
        <ele>245.27</ele>
        <time>2012-12-11T15:30:40Z</time>
      </trkpt>
      <trkpt lat="43.25782" lon="-0.26395">
        <ele>246.72</ele>
        <time>2012-12-11T15:30:49Z</time>
      </trkpt>
      <trkpt lat="43.25791" lon="-0.26391">
        <ele>247.68</ele>
        <time>2012-12-11T15:30:59Z</time>
      </trkpt>
      <trkpt lat="43.25801" lon="-0.26386">
        <ele>248.64</ele>
        <time>2012-12-11T15:31:10Z</time>
      </trkpt>
      <trkpt lat="43.25811" lon="-0.26381">
        <ele>249.12</ele>
        <time>2012-12-11T15:31:20Z</time>
      </trkpt>
      <trkpt lat="43.2582" lon="-0.26375">
        <ele>250.08</ele>
        <time>2012-12-11T15:31:31Z</time>
      </trkpt>
      <trkpt lat="43.25831" lon="-0.2637">
        <ele>251.04</ele>
        <time>2012-12-11T15:31:42Z</time>
      </trkpt>
      <trkpt lat="43.2584" lon="-0.26374">
        <ele>251.52</ele>
        <time>2012-12-11T15:31:52Z</time>
      </trkpt>
      <trkpt lat="43.25849" lon="-0.26379">
        <ele>251.52</ele>
        <time>2012-12-11T15:32:00Z</time>
      </trkpt>
      <trkpt lat="43.25859" lon="-0.26388">
        <ele>252.48</ele>
        <time>2012-12-11T15:32:10Z</time>
      </trkpt>
      <trkpt lat="43.25868" lon="-0.26393">
        <ele>252.48</ele>
        <time>2012-12-11T15:32:20Z</time>
      </trkpt>
      <trkpt lat="43.25878" lon="-0.264">
        <ele>252.48</ele>
        <time>2012-12-11T15:32:30Z</time>
      </trkpt>
      <trkpt lat="43.25888" lon="-0.26407">
        <ele>252.96</ele>
        <time>2012-12-11T15:32:40Z</time>
      </trkpt>
      <trkpt lat="43.25898" lon="-0.26413">
        <ele>253.93</ele>
        <time>2012-12-11T15:32:51Z</time>
      </trkpt>
      <trkpt lat="43.25908" lon="-0.26417">
        <ele>254.89</ele>
        <time>2012-12-11T15:33:02Z</time>
      </trkpt>
      <trkpt lat="43.25917" lon="-0.26424">
        <ele>255.85</ele>
        <time>2012-12-11T15:33:12Z</time>
      </trkpt>
      <trkpt lat="43.25926" lon="-0.26432">
        <ele>255.85</ele>
        <time>2012-12-11T15:33:22Z</time>
      </trkpt>
      <trkpt lat="43.25936" lon="-0.26438">
        <ele>256.33</ele>
        <time>2012-12-11T15:33:32Z</time>
      </trkpt>
      <trkpt lat="43.25945" lon="-0.26445">
        <ele>256.81</ele>
        <time>2012-12-11T15:33:42Z</time>
      </trkpt>
      <trkpt lat="43.25954" lon="-0.2645">
        <ele>256.81</ele>
        <time>2012-12-11T15:33:51Z</time>
      </trkpt>
      <trkpt lat="43.25962" lon="-0.26457">
        <ele>257.77</ele>
        <time>2012-12-11T15:34:01Z</time>
      </trkpt>
      <trkpt lat="43.25971" lon="-0.26464">
        <ele>259.21</ele>
        <time>2012-12-11T15:34:11Z</time>
      </trkpt>
      <trkpt lat="43.25978" lon="-0.26471">
        <ele>260.17</ele>
        <time>2012-12-11T15:34:22Z</time>
      </trkpt>
      <trkpt lat="43.25984" lon="-0.26478">
        <ele>260.65</ele>
        <time>2012-12-11T15:34:33Z</time>
      </trkpt>
      <trkpt lat="43.25991" lon="-0.26488">
        <ele>261.62</ele>
        <time>2012-12-11T15:34:44Z</time>
      </trkpt>
      <trkpt lat="43.26" lon="-0.26495">
        <ele>263.06</ele>
        <time>2012-12-11T15:34:54Z</time>
      </trkpt>
      <trkpt lat="43.2601" lon="-0.26504">
        <ele>264.02</ele>
        <time>2012-12-11T15:35:05Z</time>
      </trkpt>
      <trkpt lat="43.2602" lon="-0.26511">
        <ele>264.98</ele>
        <time>2012-12-11T15:35:16Z</time>
      </trkpt>
      <trkpt lat="43.2603" lon="-0.26518">
        <ele>265.94</ele>
        <time>2012-12-11T15:35:27Z</time>
      </trkpt>
      <trkpt lat="43.2604" lon="-0.26521">
        <ele>267.38</ele>
        <time>2012-12-11T15:35:37Z</time>
      </trkpt>
      <trkpt lat="43.26051" lon="-0.26524">
        <ele>268.83</ele>
        <time>2012-12-11T15:35:47Z</time>
      </trkpt>
      <trkpt lat="43.26061" lon="-0.26527">
        <ele>269.31</ele>
        <time>2012-12-11T15:35:58Z</time>
      </trkpt>
      <trkpt lat="43.26069" lon="-0.2653">
        <ele>270.75</ele>
        <time>2012-12-11T15:36:08Z</time>
      </trkpt>
      <trkpt lat="43.26078" lon="-0.26534">
        <ele>271.71</ele>
        <time>2012-12-11T15:36:17Z</time>
      </trkpt>
      <trkpt lat="43.26088" lon="-0.26537">
        <ele>272.19</ele>
        <time>2012-12-11T15:36:27Z</time>
      </trkpt>
      <trkpt lat="43.26097" lon="-0.26541">
        <ele>273.15</ele>
        <time>2012-12-11T15:36:36Z</time>
      </trkpt>
      <trkpt lat="43.26106" lon="-0.26543">
        <ele>274.11</ele>
        <time>2012-12-11T15:36:45Z</time>
      </trkpt>
      <trkpt lat="43.26116" lon="-0.26546">
        <ele>274.59</ele>
        <time>2012-12-11T15:36:54Z</time>
      </trkpt>
      <trkpt lat="43.26125" lon="-0.2655">
        <ele>275.07</ele>
        <time>2012-12-11T15:37:03Z</time>
      </trkpt>
      <trkpt lat="43.26135" lon="-0.26552">
        <ele>275.07</ele>
        <time>2012-12-11T15:37:11Z</time>
      </trkpt>
      <trkpt lat="43.26145" lon="-0.26554">
        <ele>276.04</ele>
        <time>2012-12-11T15:37:21Z</time>
      </trkpt>
      <trkpt lat="43.26155" lon="-0.26554">
        <ele>277</ele>
        <time>2012-12-11T15:37:30Z</time>
      </trkpt>
      <trkpt lat="43.26165" lon="-0.26554">
        <ele>277.48</ele>
        <time>2012-12-11T15:37:39Z</time>
      </trkpt>
      <trkpt lat="43.26174" lon="-0.26554">
        <ele>277.48</ele>
        <time>2012-12-11T15:37:48Z</time>
      </trkpt>
      <trkpt lat="43.26184" lon="-0.26555">
        <ele>278.44</ele>
        <time>2012-12-11T15:37:58Z</time>
      </trkpt>
      <trkpt lat="43.26195" lon="-0.26554">
        <ele>279.88</ele>
        <time>2012-12-11T15:38:08Z</time>
      </trkpt>
      <trkpt lat="43.26204" lon="-0.26551">
        <ele>280.84</ele>
        <time>2012-12-11T15:38:31Z</time>
      </trkpt>
      <trkpt lat="43.26214" lon="-0.26551">
        <ele>280.36</ele>
        <time>2012-12-11T15:38:39Z</time>
      </trkpt>
      <trkpt lat="43.26223" lon="-0.26546">
        <ele>280.36</ele>
        <time>2012-12-11T15:38:47Z</time>
      </trkpt>
      <trkpt lat="43.26235" lon="-0.26541">
        <ele>280.36</ele>
        <time>2012-12-11T15:38:58Z</time>
      </trkpt>
      <trkpt lat="43.26246" lon="-0.26537">
        <ele>280.36</ele>
        <time>2012-12-11T15:39:07Z</time>
      </trkpt>
      <trkpt lat="43.26257" lon="-0.26531">
        <ele>280.84</ele>
        <time>2012-12-11T15:39:17Z</time>
      </trkpt>
      <trkpt lat="43.26268" lon="-0.26525">
        <ele>280.36</ele>
        <time>2012-12-11T15:39:28Z</time>
      </trkpt>
      <trkpt lat="43.26279" lon="-0.26519">
        <ele>280.84</ele>
        <time>2012-12-11T15:39:39Z</time>
      </trkpt>
      <trkpt lat="43.26289" lon="-0.26512">
        <ele>280.84</ele>
        <time>2012-12-11T15:39:48Z</time>
      </trkpt>
      <trkpt lat="43.26299" lon="-0.26506">
        <ele>280.84</ele>
        <time>2012-12-11T15:39:57Z</time>
      </trkpt>
      <trkpt lat="43.26308" lon="-0.26501">
        <ele>280.36</ele>
        <time>2012-12-11T15:40:05Z</time>
      </trkpt>
      <trkpt lat="43.26318" lon="-0.26496">
        <ele>280.84</ele>
        <time>2012-12-11T15:40:14Z</time>
      </trkpt>
      <trkpt lat="43.26329" lon="-0.26486">
        <ele>279.88</ele>
        <time>2012-12-11T15:40:25Z</time>
      </trkpt>
      <trkpt lat="43.26339" lon="-0.26478">
        <ele>278.44</ele>
        <time>2012-12-11T15:40:33Z</time>
      </trkpt>
      <trkpt lat="43.26347" lon="-0.26466">
        <ele>278.44</ele>
        <time>2012-12-11T15:40:44Z</time>
      </trkpt>
      <trkpt lat="43.26354" lon="-0.26453">
        <ele>277</ele>
        <time>2012-12-11T15:40:54Z</time>
      </trkpt>
      <trkpt lat="43.26366" lon="-0.2644">
        <ele>276.52</ele>
        <time>2012-12-11T15:41:04Z</time>
      </trkpt>
      <trkpt lat="43.26374" lon="-0.26429">
        <ele>275.56</ele>
        <time>2012-12-11T15:41:13Z</time>
      </trkpt>
      <trkpt lat="43.26382" lon="-0.26421">
        <ele>275.07</ele>
        <time>2012-12-11T15:41:21Z</time>
      </trkpt>
      <trkpt lat="43.2639" lon="-0.26414">
        <ele>275.07</ele>
        <time>2012-12-11T15:41:29Z</time>
      </trkpt>
      <trkpt lat="43.26398" lon="-0.26413">
        <ele>275.56</ele>
        <time>2012-12-11T15:41:37Z</time>
      </trkpt>
      <trkpt lat="43.26407" lon="-0.26416">
        <ele>276.04</ele>
        <time>2012-12-11T15:41:45Z</time>
      </trkpt>
      <trkpt lat="43.26416" lon="-0.26418">
        <ele>276.52</ele>
        <time>2012-12-11T15:41:53Z</time>
      </trkpt>
      <trkpt lat="43.26426" lon="-0.26416">
        <ele>277</ele>
        <time>2012-12-11T15:42:02Z</time>
      </trkpt>
      <trkpt lat="43.26437" lon="-0.26413">
        <ele>276.04</ele>
        <time>2012-12-11T15:42:10Z</time>
      </trkpt>
      <trkpt lat="43.26446" lon="-0.26409">
        <ele>276.04</ele>
        <time>2012-12-11T15:42:18Z</time>
      </trkpt>
      <trkpt lat="43.26454" lon="-0.26404">
        <ele>276.04</ele>
        <time>2012-12-11T15:42:26Z</time>
      </trkpt>
      <trkpt lat="43.26463" lon="-0.26399">
        <ele>275.07</ele>
        <time>2012-12-11T15:42:34Z</time>
      </trkpt>
      <trkpt lat="43.26472" lon="-0.26395">
        <ele>274.11</ele>
        <time>2012-12-11T15:42:42Z</time>
      </trkpt>
      <trkpt lat="43.2648" lon="-0.26392">
        <ele>273.63</ele>
        <time>2012-12-11T15:42:50Z</time>
      </trkpt>
      <trkpt lat="43.26489" lon="-0.26393">
        <ele>273.63</ele>
        <time>2012-12-11T15:42:58Z</time>
      </trkpt>
      <trkpt lat="43.26498" lon="-0.26398">
        <ele>273.15</ele>
        <time>2012-12-11T15:43:06Z</time>
      </trkpt>
      <trkpt lat="43.26507" lon="-0.26404">
        <ele>273.15</ele>
        <time>2012-12-11T15:43:14Z</time>
      </trkpt>
      <trkpt lat="43.26516" lon="-0.2641">
        <ele>273.63</ele>
        <time>2012-12-11T15:43:22Z</time>
      </trkpt>
      <trkpt lat="43.26524" lon="-0.26418">
        <ele>273.63</ele>
        <time>2012-12-11T15:43:30Z</time>
      </trkpt>
      <trkpt lat="43.26532" lon="-0.26427">
        <ele>273.63</ele>
        <time>2012-12-11T15:43:38Z</time>
      </trkpt>
      <trkpt lat="43.26542" lon="-0.26433">
        <ele>274.11</ele>
        <time>2012-12-11T15:43:47Z</time>
      </trkpt>
      <trkpt lat="43.2655" lon="-0.26438">
        <ele>274.59</ele>
        <time>2012-12-11T15:43:54Z</time>
      </trkpt>
      <trkpt lat="43.26558" lon="-0.26443">
        <ele>274.59</ele>
        <time>2012-12-11T15:44:02Z</time>
      </trkpt>
      <trkpt lat="43.26567" lon="-0.26447">
        <ele>274.59</ele>
        <time>2012-12-11T15:44:11Z</time>
      </trkpt>
      <trkpt lat="43.26578" lon="-0.26453">
        <ele>274.59</ele>
        <time>2012-12-11T15:44:19Z</time>
      </trkpt>
      <trkpt lat="43.26587" lon="-0.26457">
        <ele>274.59</ele>
        <time>2012-12-11T15:44:27Z</time>
      </trkpt>
      <trkpt lat="43.26595" lon="-0.26463">
        <ele>275.07</ele>
        <time>2012-12-11T15:44:35Z</time>
      </trkpt>
      <trkpt lat="43.26603" lon="-0.26469">
        <ele>275.07</ele>
        <time>2012-12-11T15:44:43Z</time>
      </trkpt>
      <trkpt lat="43.26612" lon="-0.26476">
        <ele>275.07</ele>
        <time>2012-12-11T15:44:51Z</time>
      </trkpt>
      <trkpt lat="43.26621" lon="-0.26481">
        <ele>276.04</ele>
        <time>2012-12-11T15:44:59Z</time>
      </trkpt>
      <trkpt lat="43.2663" lon="-0.26486">
        <ele>276.04</ele>
        <time>2012-12-11T15:45:08Z</time>
      </trkpt>
      <trkpt lat="43.26639" lon="-0.26492">
        <ele>275.56</ele>
        <time>2012-12-11T15:45:16Z</time>
      </trkpt>
      <trkpt lat="43.26649" lon="-0.26495">
        <ele>276.52</ele>
        <time>2012-12-11T15:45:25Z</time>
      </trkpt>
      <trkpt lat="43.26659" lon="-0.26497">
        <ele>276.04</ele>
        <time>2012-12-11T15:45:33Z</time>
      </trkpt>
      <trkpt lat="43.26669" lon="-0.26498">
        <ele>276.52</ele>
        <time>2012-12-11T15:45:41Z</time>
      </trkpt>
      <trkpt lat="43.26679" lon="-0.265">
        <ele>277.48</ele>
        <time>2012-12-11T15:45:50Z</time>
      </trkpt>
      <trkpt lat="43.26688" lon="-0.26501">
        <ele>277</ele>
        <time>2012-12-11T15:45:58Z</time>
      </trkpt>
      <trkpt lat="43.26697" lon="-0.26503">
        <ele>277.96</ele>
        <time>2012-12-11T15:46:07Z</time>
      </trkpt>
      <trkpt lat="43.26707" lon="-0.265">
        <ele>278.92</ele>
        <time>2012-12-11T15:46:16Z</time>
      </trkpt>
      <trkpt lat="43.26717" lon="-0.26501">
        <ele>278.92</ele>
        <time>2012-12-11T15:46:25Z</time>
      </trkpt>
      <trkpt lat="43.26726" lon="-0.26503">
        <ele>279.88</ele>
        <time>2012-12-11T15:46:34Z</time>
      </trkpt>
      <trkpt lat="43.26738" lon="-0.26504">
        <ele>280.36</ele>
        <time>2012-12-11T15:46:44Z</time>
      </trkpt>
      <trkpt lat="43.26747" lon="-0.26506">
        <ele>280.84</ele>
        <time>2012-12-11T15:46:52Z</time>
      </trkpt>
      <trkpt lat="43.26757" lon="-0.26507">
        <ele>280.36</ele>
        <time>2012-12-11T15:47:00Z</time>
      </trkpt>
      <trkpt lat="43.26767" lon="-0.26509">
        <ele>279.88</ele>
        <time>2012-12-11T15:47:09Z</time>
      </trkpt>
      <trkpt lat="43.26775" lon="-0.26516">
        <ele>279.88</ele>
        <time>2012-12-11T15:47:18Z</time>
      </trkpt>
      <trkpt lat="43.26778" lon="-0.26527">
        <ele>279.4</ele>
        <time>2012-12-11T15:47:27Z</time>
      </trkpt>
      <trkpt lat="43.26777" lon="-0.2654">
        <ele>279.4</ele>
        <time>2012-12-11T15:47:35Z</time>
      </trkpt>
      <trkpt lat="43.26776" lon="-0.26552">
        <ele>279.4</ele>
        <time>2012-12-11T15:47:44Z</time>
      </trkpt>
      <trkpt lat="43.26776" lon="-0.26563">
        <ele>279.88</ele>
        <time>2012-12-11T15:47:54Z</time>
      </trkpt>
      <trkpt lat="43.26769" lon="-0.26567">
        <ele>279.88</ele>
        <time>2012-12-11T15:48:04Z</time>
      </trkpt>
      <trkpt lat="43.2676" lon="-0.26568">
        <ele>279.4</ele>
        <time>2012-12-11T15:48:14Z</time>
      </trkpt>
      <trkpt lat="43.26751" lon="-0.26574">
        <ele>277.96</ele>
        <time>2012-12-11T15:48:24Z</time>
      </trkpt>
      <trkpt lat="43.26741" lon="-0.26581">
        <ele>277</ele>
        <time>2012-12-11T15:48:34Z</time>
      </trkpt>
      <trkpt lat="43.26734" lon="-0.2659">
        <ele>276.04</ele>
        <time>2012-12-11T15:48:43Z</time>
      </trkpt>
      <trkpt lat="43.26727" lon="-0.26599">
        <ele>275.07</ele>
        <time>2012-12-11T15:48:52Z</time>
      </trkpt>
      <trkpt lat="43.26728" lon="-0.26611">
        <ele>274.11</ele>
        <time>2012-12-11T15:49:02Z</time>
      </trkpt>
      <trkpt lat="43.26731" lon="-0.26616">
        <ele>274.59</ele>
        <time>2012-12-11T15:49:50Z</time>
      </trkpt>
    </trkseg>
  </trk>
</gpx>